<?xml version="1.0" encoding="UTF-8" standalone="no" ?>
<gpx xmlns="http://www.topografix.com/GPX/1/1" xmlns:xsi="http://www.w3.org/2001/XMLSchema-instance" xsi:schemaLocation="http://www.topografix.com/GPX/1/1 http://www.topografix.com/GPX/1/1/gpx.xsd" version="1.1" creator="VisuGPX - https://www.visugpx.com">
  <metadata>
    <name>Montets-Forclaz-80-1700</name>
    <desc><![CDATA[Cols des Montets et de la Forclaz - 80 km - D+ : 1700 m]]></desc>
  </metadata>
  <trk>
    <name><![CDATA[Montets-Forclaz-80-1700]]></name>
    <trkseg>
      <trkpt lat="46.07398" lon="6.57935">
        <ele>484</ele>
        <time>2019-08-07T15:03:26Z</time>
      </trkpt>
      <trkpt lat="46.07338" lon="6.57976">
        <ele>484</ele>
        <time>2019-08-07T15:03:38Z</time>
      </trkpt>
      <trkpt lat="46.0734" lon="6.58038">
        <ele>486</ele>
        <time>2019-08-07T15:03:45Z</time>
      </trkpt>
      <trkpt lat="46.074" lon="6.5813">
        <ele>490</ele>
        <time>2019-08-07T15:04:01Z</time>
      </trkpt>
      <trkpt lat="46.07431" lon="6.58255">
        <ele>506</ele>
        <time>2019-08-07T15:04:17Z</time>
      </trkpt>
      <trkpt lat="46.07311" lon="6.58226">
        <ele>490</ele>
        <time>2019-08-07T15:04:39Z</time>
      </trkpt>
      <trkpt lat="46.07224" lon="6.58381">
        <ele>500</ele>
        <time>2019-08-07T15:05:04Z</time>
      </trkpt>
      <trkpt lat="46.0709" lon="6.58455">
        <ele>498</ele>
        <time>2019-08-07T15:05:29Z</time>
      </trkpt>
      <trkpt lat="46.07053" lon="6.58488">
        <ele>500</ele>
        <time>2019-08-07T15:05:37Z</time>
      </trkpt>
      <trkpt lat="46.07008" lon="6.58501">
        <ele>499</ele>
        <time>2019-08-07T15:05:45Z</time>
      </trkpt>
      <trkpt lat="46.06936" lon="6.58488">
        <ele>494</ele>
        <time>2019-08-07T15:05:58Z</time>
      </trkpt>
      <trkpt lat="46.06908" lon="6.58515">
        <ele>493</ele>
        <time>2019-08-07T15:06:04Z</time>
      </trkpt>
      <trkpt lat="46.06879" lon="6.58575">
        <ele>493</ele>
        <time>2019-08-07T15:06:13Z</time>
      </trkpt>
      <trkpt lat="46.06797" lon="6.58659">
        <ele>494</ele>
        <time>2019-08-07T15:06:31Z</time>
      </trkpt>
      <trkpt lat="46.06715" lon="6.58902">
        <ele>504</ele>
        <time>2019-08-07T15:07:04Z</time>
      </trkpt>
      <trkpt lat="46.065" lon="6.58869">
        <ele>498</ele>
        <time>2019-08-07T15:07:43Z</time>
      </trkpt>
      <trkpt lat="46.0639" lon="6.58928">
        <ele>499</ele>
        <time>2019-08-07T15:08:04Z</time>
      </trkpt>
      <trkpt lat="46.06172" lon="6.58746">
        <ele>490</ele>
        <time>2019-08-07T15:08:49Z</time>
      </trkpt>
      <trkpt lat="46.06014" lon="6.58637">
        <ele>504</ele>
        <time>2019-08-07T15:09:20Z</time>
      </trkpt>
      <trkpt lat="46.0596" lon="6.58561">
        <ele>500</ele>
        <time>2019-08-07T15:09:33Z</time>
      </trkpt>
      <trkpt lat="46.05919" lon="6.58445">
        <ele>490</ele>
        <time>2019-08-07T15:09:49Z</time>
      </trkpt>
      <trkpt lat="46.0583" lon="6.58361">
        <ele>491</ele>
        <time>2019-08-07T15:10:08Z</time>
      </trkpt>
      <trkpt lat="46.05768" lon="6.58281">
        <ele>496</ele>
        <time>2019-08-07T15:10:23Z</time>
      </trkpt>
      <trkpt lat="46.0577" lon="6.58226">
        <ele>492</ele>
        <time>2019-08-07T15:10:30Z</time>
      </trkpt>
      <trkpt lat="46.05782" lon="6.58137">
        <ele>488</ele>
        <time>2019-08-07T15:10:41Z</time>
      </trkpt>
      <trkpt lat="46.05682" lon="6.58158">
        <ele>496</ele>
        <time>2019-08-07T15:10:59Z</time>
      </trkpt>
      <trkpt lat="46.05679" lon="6.5808">
        <ele>488</ele>
        <time>2019-08-07T15:11:09Z</time>
      </trkpt>
      <trkpt lat="46.05529" lon="6.58111">
        <ele>489</ele>
        <time>2019-08-07T15:11:36Z</time>
      </trkpt>
      <trkpt lat="46.05431" lon="6.58142">
        <ele>489</ele>
        <time>2019-08-07T15:11:53Z</time>
      </trkpt>
      <trkpt lat="46.05184" lon="6.58365">
        <ele>494</ele>
        <time>2019-08-07T15:12:45Z</time>
      </trkpt>
      <trkpt lat="46.05135" lon="6.58514">
        <ele>511</ele>
        <time>2019-08-07T15:13:06Z</time>
      </trkpt>
      <trkpt lat="46.05112" lon="6.58819">
        <ele>514</ele>
        <time>2019-08-07T15:13:43Z</time>
      </trkpt>
      <trkpt lat="46.05003" lon="6.59568">
        <ele>499</ele>
        <time>2019-08-07T15:15:18Z</time>
      </trkpt>
      <trkpt lat="46.04893" lon="6.5985">
        <ele>497</ele>
        <time>2019-08-07T15:15:58Z</time>
      </trkpt>
      <trkpt lat="46.04562" lon="6.60462">
        <ele>503</ele>
        <time>2019-08-07T15:17:34Z</time>
      </trkpt>
      <trkpt lat="46.0439" lon="6.60704">
        <ele>518</ele>
        <time>2019-08-07T15:18:17Z</time>
      </trkpt>
      <trkpt lat="46.04241" lon="6.60786">
        <ele>522</ele>
        <time>2019-08-07T15:18:45Z</time>
      </trkpt>
      <trkpt lat="46.04027" lon="6.60772">
        <ele>501</ele>
        <time>2019-08-07T15:19:23Z</time>
      </trkpt>
      <trkpt lat="46.03936" lon="6.60866">
        <ele>498</ele>
        <time>2019-08-07T15:19:43Z</time>
      </trkpt>
      <trkpt lat="46.03846" lon="6.61447">
        <ele>497</ele>
        <time>2019-08-07T15:20:56Z</time>
      </trkpt>
      <trkpt lat="46.03698" lon="6.61743">
        <ele>512</ele>
        <time>2019-08-07T15:21:42Z</time>
      </trkpt>
      <trkpt lat="46.03563" lon="6.61849">
        <ele>510</ele>
        <time>2019-08-07T15:22:09Z</time>
      </trkpt>
      <trkpt lat="46.03321" lon="6.61814">
        <ele>503</ele>
        <time>2019-08-07T15:22:52Z</time>
      </trkpt>
      <trkpt lat="46.03109" lon="6.61765">
        <ele>506</ele>
        <time>2019-08-07T15:23:30Z</time>
      </trkpt>
      <trkpt lat="46.03004" lon="6.61728">
        <ele>502</ele>
        <time>2019-08-07T15:23:50Z</time>
      </trkpt>
      <trkpt lat="46.02844" lon="6.61744">
        <ele>504</ele>
        <time>2019-08-07T15:24:18Z</time>
      </trkpt>
      <trkpt lat="46.02807" lon="6.61654">
        <ele>503</ele>
        <time>2019-08-07T15:24:31Z</time>
      </trkpt>
      <trkpt lat="46.0271" lon="6.61595">
        <ele>504</ele>
        <time>2019-08-07T15:24:50Z</time>
      </trkpt>
      <trkpt lat="46.02643" lon="6.61567">
        <ele>504</ele>
        <time>2019-08-07T15:25:02Z</time>
      </trkpt>
      <trkpt lat="46.02606" lon="6.61476">
        <ele>504</ele>
        <time>2019-08-07T15:25:15Z</time>
      </trkpt>
      <trkpt lat="46.0255" lon="6.61411">
        <ele>504</ele>
        <time>2019-08-07T15:25:28Z</time>
      </trkpt>
      <trkpt lat="46.02504" lon="6.61326">
        <ele>504</ele>
        <time>2019-08-07T15:25:41Z</time>
      </trkpt>
      <trkpt lat="46.02436" lon="6.61266">
        <ele>503</ele>
        <time>2019-08-07T15:25:56Z</time>
      </trkpt>
      <trkpt lat="46.0239" lon="6.61301">
        <ele>503</ele>
        <time>2019-08-07T15:26:05Z</time>
      </trkpt>
      <trkpt lat="46.02323" lon="6.61635">
        <ele>504</ele>
        <time>2019-08-07T15:26:48Z</time>
      </trkpt>
      <trkpt lat="46.02066" lon="6.6177">
        <ele>504</ele>
        <time>2019-08-07T15:27:36Z</time>
      </trkpt>
      <trkpt lat="46.01931" lon="6.61747">
        <ele>505</ele>
        <time>2019-08-07T15:28:01Z</time>
      </trkpt>
      <trkpt lat="46.01898" lon="6.61786">
        <ele>505</ele>
        <time>2019-08-07T15:28:08Z</time>
      </trkpt>
      <trkpt lat="46.01897" lon="6.61812">
        <ele>505</ele>
        <time>2019-08-07T15:28:11Z</time>
      </trkpt>
      <trkpt lat="46.01817" lon="6.61864">
        <ele>505</ele>
        <time>2019-08-07T15:28:27Z</time>
      </trkpt>
      <trkpt lat="46.01757" lon="6.61821">
        <ele>505</ele>
        <time>2019-08-07T15:28:39Z</time>
      </trkpt>
      <trkpt lat="46.01413" lon="6.62043">
        <ele>506</ele>
        <time>2019-08-07T15:29:46Z</time>
      </trkpt>
      <trkpt lat="46.01328" lon="6.62162">
        <ele>507</ele>
        <time>2019-08-07T15:30:07Z</time>
      </trkpt>
      <trkpt lat="46.01164" lon="6.62262">
        <ele>506</ele>
        <time>2019-08-07T15:30:39Z</time>
      </trkpt>
      <trkpt lat="46.01225" lon="6.62445">
        <ele>508</ele>
        <time>2019-08-07T15:31:04Z</time>
      </trkpt>
      <trkpt lat="46.0118" lon="6.6248">
        <ele>509</ele>
        <time>2019-08-07T15:31:13Z</time>
      </trkpt>
      <trkpt lat="46.01193" lon="6.62636">
        <ele>514</ele>
        <time>2019-08-07T15:31:32Z</time>
      </trkpt>
      <trkpt lat="46.01021" lon="6.62636">
        <ele>513</ele>
        <time>2019-08-07T15:32:03Z</time>
      </trkpt>
      <trkpt lat="46.00581" lon="6.62905">
        <ele>510</ele>
        <time>2019-08-07T15:33:28Z</time>
      </trkpt>
      <trkpt lat="45.99482" lon="6.63062">
        <ele>519</ele>
        <time>2019-08-07T15:36:45Z</time>
      </trkpt>
      <trkpt lat="45.99283" lon="6.63098">
        <ele>520</ele>
        <time>2019-08-07T15:37:20Z</time>
      </trkpt>
      <trkpt lat="45.99268" lon="6.63129">
        <ele>523</ele>
        <time>2019-08-07T15:37:25Z</time>
      </trkpt>
      <trkpt lat="45.98971" lon="6.63189">
        <ele>523</ele>
        <time>2019-08-07T15:38:18Z</time>
      </trkpt>
      <trkpt lat="45.98655" lon="6.63268">
        <ele>530</ele>
        <time>2019-08-07T15:39:15Z</time>
      </trkpt>
      <trkpt lat="45.98435" lon="6.63251">
        <ele>534</ele>
        <time>2019-08-07T15:39:55Z</time>
      </trkpt>
      <trkpt lat="45.98219" lon="6.6335">
        <ele>540</ele>
        <time>2019-08-07T15:40:35Z</time>
      </trkpt>
      <trkpt lat="45.9789" lon="6.6366">
        <ele>524</ele>
        <time>2019-08-07T15:41:45Z</time>
      </trkpt>
      <trkpt lat="45.9781" lon="6.63738">
        <ele>523</ele>
        <time>2019-08-07T15:42:02Z</time>
      </trkpt>
      <trkpt lat="45.97463" lon="6.63869">
        <ele>526</ele>
        <time>2019-08-07T15:43:06Z</time>
      </trkpt>
      <trkpt lat="45.9665" lon="6.63612">
        <ele>550</ele>
        <time>2019-08-07T15:45:34Z</time>
      </trkpt>
      <trkpt lat="45.9619" lon="6.63756">
        <ele>537</ele>
        <time>2019-08-07T15:46:58Z</time>
      </trkpt>
      <trkpt lat="45.96085" lon="6.63848">
        <ele>548</ele>
        <time>2019-08-07T15:47:20Z</time>
      </trkpt>
      <trkpt lat="45.95714" lon="6.63948">
        <ele>549</ele>
        <time>2019-08-07T15:48:27Z</time>
      </trkpt>
      <trkpt lat="45.95583" lon="6.63896">
        <ele>535</ele>
        <time>2019-08-07T15:48:51Z</time>
      </trkpt>
      <trkpt lat="45.95447" lon="6.63918">
        <ele>536</ele>
        <time>2019-08-07T15:49:15Z</time>
      </trkpt>
      <trkpt lat="45.95032" lon="6.64117">
        <ele>536</ele>
        <time>2019-08-07T15:50:33Z</time>
      </trkpt>
      <trkpt lat="45.94938" lon="6.64146">
        <ele>538</ele>
        <time>2019-08-07T15:50:50Z</time>
      </trkpt>
      <trkpt lat="45.94717" lon="6.64148">
        <ele>539</ele>
        <time>2019-08-07T15:51:30Z</time>
      </trkpt>
      <trkpt lat="45.94322" lon="6.64175">
        <ele>546</ele>
        <time>2019-08-07T15:52:40Z</time>
      </trkpt>
      <trkpt lat="45.94223" lon="6.6417">
        <ele>547</ele>
        <time>2019-08-07T15:52:58Z</time>
      </trkpt>
      <trkpt lat="45.94111" lon="6.64219">
        <ele>545</ele>
        <time>2019-08-07T15:53:18Z</time>
      </trkpt>
      <trkpt lat="45.93973" lon="6.64302">
        <ele>544</ele>
        <time>2019-08-07T15:53:45Z</time>
      </trkpt>
      <trkpt lat="45.93942" lon="6.64393">
        <ele>545</ele>
        <time>2019-08-07T15:53:58Z</time>
      </trkpt>
      <trkpt lat="45.93856" lon="6.64458">
        <ele>542</ele>
        <time>2019-08-07T15:54:15Z</time>
      </trkpt>
      <trkpt lat="45.93658" lon="6.64688">
        <ele>544</ele>
        <time>2019-08-07T15:55:00Z</time>
      </trkpt>
      <trkpt lat="45.9337" lon="6.6503">
        <ele>546</ele>
        <time>2019-08-07T15:56:07Z</time>
      </trkpt>
      <trkpt lat="45.92941" lon="6.65464">
        <ele>558</ele>
        <time>2019-08-07T15:57:40Z</time>
      </trkpt>
      <trkpt lat="45.92899" lon="6.65745">
        <ele>571</ele>
        <time>2019-08-07T15:58:15Z</time>
      </trkpt>
      <trkpt lat="45.92782" lon="6.65865">
        <ele>580</ele>
        <time>2019-08-07T15:58:41Z</time>
      </trkpt>
      <trkpt lat="45.9268" lon="6.6605">
        <ele>587</ele>
        <time>2019-08-07T15:59:10Z</time>
      </trkpt>
      <trkpt lat="45.92671" lon="6.66276">
        <ele>599</ele>
        <time>2019-08-07T15:59:38Z</time>
      </trkpt>
      <trkpt lat="45.92602" lon="6.66438">
        <ele>602</ele>
        <time>2019-08-07T16:00:02Z</time>
      </trkpt>
      <trkpt lat="45.92617" lon="6.66523">
        <ele>609</ele>
        <time>2019-08-07T16:00:13Z</time>
      </trkpt>
      <trkpt lat="45.92651" lon="6.66571">
        <ele>616</ele>
        <time>2019-08-07T16:00:21Z</time>
      </trkpt>
      <trkpt lat="45.92617" lon="6.66633">
        <ele>617</ele>
        <time>2019-08-07T16:00:31Z</time>
      </trkpt>
      <trkpt lat="45.92548" lon="6.66666">
        <ele>612</ele>
        <time>2019-08-07T16:00:44Z</time>
      </trkpt>
      <trkpt lat="45.92458" lon="6.66891">
        <ele>629</ele>
        <time>2019-08-07T16:01:16Z</time>
      </trkpt>
      <trkpt lat="45.92324" lon="6.67352">
        <ele>648</ele>
        <time>2019-08-07T16:02:18Z</time>
      </trkpt>
      <trkpt lat="45.92373" lon="6.67466">
        <ele>660</ele>
        <time>2019-08-07T16:02:34Z</time>
      </trkpt>
      <trkpt lat="45.92343" lon="6.6756">
        <ele>656</ele>
        <time>2019-08-07T16:02:47Z</time>
      </trkpt>
      <trkpt lat="45.92367" lon="6.67743">
        <ele>668</ele>
        <time>2019-08-07T16:03:10Z</time>
      </trkpt>
      <trkpt lat="45.923" lon="6.6808">
        <ele>685</ele>
        <time>2019-08-07T16:03:54Z</time>
      </trkpt>
      <trkpt lat="45.92317" lon="6.6823">
        <ele>692</ele>
        <time>2019-08-07T16:04:12Z</time>
      </trkpt>
      <trkpt lat="45.92273" lon="6.68323">
        <ele>684</ele>
        <time>2019-08-07T16:04:26Z</time>
      </trkpt>
      <trkpt lat="45.92351" lon="6.68613">
        <ele>696</ele>
        <time>2019-08-07T16:05:05Z</time>
      </trkpt>
      <trkpt lat="45.92351" lon="6.68858">
        <ele>690</ele>
        <time>2019-08-07T16:05:35Z</time>
      </trkpt>
      <trkpt lat="45.92399" lon="6.6912">
        <ele>694</ele>
        <time>2019-08-07T16:06:09Z</time>
      </trkpt>
      <trkpt lat="45.92383" lon="6.69203">
        <ele>684</ele>
        <time>2019-08-07T16:06:19Z</time>
      </trkpt>
      <trkpt lat="45.92409" lon="6.69328">
        <ele>687</ele>
        <time>2019-08-07T16:06:36Z</time>
      </trkpt>
      <trkpt lat="45.92445" lon="6.69453">
        <ele>691</ele>
        <time>2019-08-07T16:06:52Z</time>
      </trkpt>
      <trkpt lat="45.9244" lon="6.69595">
        <ele>683</ele>
        <time>2019-08-07T16:07:10Z</time>
      </trkpt>
      <trkpt lat="45.92394" lon="6.69727">
        <ele>673</ele>
        <time>2019-08-07T16:07:28Z</time>
      </trkpt>
      <trkpt lat="45.92407" lon="6.69796">
        <ele>678</ele>
        <time>2019-08-07T16:07:37Z</time>
      </trkpt>
      <trkpt lat="45.92441" lon="6.69902">
        <ele>684</ele>
        <time>2019-08-07T16:07:51Z</time>
      </trkpt>
      <trkpt lat="45.92507" lon="6.69959">
        <ele>698</ele>
        <time>2019-08-07T16:08:05Z</time>
      </trkpt>
      <trkpt lat="45.92511" lon="6.7013">
        <ele>697</ele>
        <time>2019-08-07T16:08:26Z</time>
      </trkpt>
      <trkpt lat="45.9256" lon="6.70315">
        <ele>700</ele>
        <time>2019-08-07T16:08:51Z</time>
      </trkpt>
      <trkpt lat="45.92607" lon="6.70399">
        <ele>708</ele>
        <time>2019-08-07T16:09:04Z</time>
      </trkpt>
      <trkpt lat="45.92654" lon="6.70529">
        <ele>709</ele>
        <time>2019-08-07T16:09:22Z</time>
      </trkpt>
      <trkpt lat="45.92709" lon="6.70598">
        <ele>717</ele>
        <time>2019-08-07T16:09:35Z</time>
      </trkpt>
      <trkpt lat="45.92848" lon="6.7098">
        <ele>742</ele>
        <time>2019-08-07T16:10:29Z</time>
      </trkpt>
      <trkpt lat="45.92848" lon="6.71028">
        <ele>737</ele>
        <time>2019-08-07T16:10:35Z</time>
      </trkpt>
      <trkpt lat="45.92982" lon="6.71284">
        <ele>742</ele>
        <time>2019-08-07T16:11:14Z</time>
      </trkpt>
      <trkpt lat="45.93074" lon="6.71363">
        <ele>745</ele>
        <time>2019-08-07T16:11:33Z</time>
      </trkpt>
      <trkpt lat="45.93164" lon="6.71483">
        <ele>751</ele>
        <time>2019-08-07T16:11:55Z</time>
      </trkpt>
      <trkpt lat="45.93165" lon="6.71622">
        <ele>751</ele>
        <time>2019-08-07T16:12:12Z</time>
      </trkpt>
      <trkpt lat="45.93252" lon="6.71703">
        <ele>755</ele>
        <time>2019-08-07T16:12:31Z</time>
      </trkpt>
      <trkpt lat="45.93319" lon="6.71883">
        <ele>752</ele>
        <time>2019-08-07T16:12:56Z</time>
      </trkpt>
      <trkpt lat="45.93358" lon="6.71934">
        <ele>758</ele>
        <time>2019-08-07T16:13:05Z</time>
      </trkpt>
      <trkpt lat="45.93436" lon="6.72066">
        <ele>764</ele>
        <time>2019-08-07T16:13:27Z</time>
      </trkpt>
      <trkpt lat="45.93446" lon="6.72167">
        <ele>756</ele>
        <time>2019-08-07T16:13:39Z</time>
      </trkpt>
      <trkpt lat="45.93495" lon="6.72304">
        <ele>767</ele>
        <time>2019-08-07T16:13:59Z</time>
      </trkpt>
      <trkpt lat="45.93491" lon="6.72461">
        <ele>768</ele>
        <time>2019-08-07T16:14:18Z</time>
      </trkpt>
      <trkpt lat="45.93494" lon="6.7262">
        <ele>777</ele>
        <time>2019-08-07T16:14:38Z</time>
      </trkpt>
      <trkpt lat="45.93396" lon="6.72822">
        <ele>773</ele>
        <time>2019-08-07T16:15:08Z</time>
      </trkpt>
      <trkpt lat="45.93483" lon="6.72877">
        <ele>787</ele>
        <time>2019-08-07T16:15:25Z</time>
      </trkpt>
      <trkpt lat="45.93489" lon="6.72965">
        <ele>781</ele>
        <time>2019-08-07T16:15:36Z</time>
      </trkpt>
      <trkpt lat="45.93572" lon="6.73027">
        <ele>794</ele>
        <time>2019-08-07T16:15:53Z</time>
      </trkpt>
      <trkpt lat="45.9367" lon="6.73009">
        <ele>820</ele>
        <time>2019-08-07T16:16:10Z</time>
      </trkpt>
      <trkpt lat="45.93705" lon="6.7315">
        <ele>799</ele>
        <time>2019-08-07T16:16:29Z</time>
      </trkpt>
      <trkpt lat="45.93802" lon="6.73265">
        <ele>803</ele>
        <time>2019-08-07T16:16:51Z</time>
      </trkpt>
      <trkpt lat="45.93818" lon="6.73376">
        <ele>819</ele>
        <time>2019-08-07T16:17:05Z</time>
      </trkpt>
      <trkpt lat="45.93736" lon="6.73556">
        <ele>829</ele>
        <time>2019-08-07T16:17:32Z</time>
      </trkpt>
      <trkpt lat="45.93817" lon="6.73924">
        <ele>841</ele>
        <time>2019-08-07T16:18:19Z</time>
      </trkpt>
      <trkpt lat="45.93863" lon="6.73954">
        <ele>856</ele>
        <time>2019-08-07T16:18:28Z</time>
      </trkpt>
      <trkpt lat="45.93902" lon="6.74093">
        <ele>861</ele>
        <time>2019-08-07T16:18:47Z</time>
      </trkpt>
      <trkpt lat="45.93898" lon="6.74157">
        <ele>864</ele>
        <time>2019-08-07T16:18:55Z</time>
      </trkpt>
      <trkpt lat="45.93772" lon="6.74302">
        <ele>867</ele>
        <time>2019-08-07T16:19:24Z</time>
      </trkpt>
      <trkpt lat="45.93687" lon="6.74343">
        <ele>857</ele>
        <time>2019-08-07T16:19:40Z</time>
      </trkpt>
      <trkpt lat="45.93632" lon="6.74494">
        <ele>864</ele>
        <time>2019-08-07T16:20:01Z</time>
      </trkpt>
      <trkpt lat="45.93631" lon="6.74626">
        <ele>877</ele>
        <time>2019-08-07T16:20:17Z</time>
      </trkpt>
      <trkpt lat="45.93559" lon="6.7464">
        <ele>861</ele>
        <time>2019-08-07T16:20:30Z</time>
      </trkpt>
      <trkpt lat="45.93507" lon="6.74749">
        <ele>856</ele>
        <time>2019-08-07T16:20:46Z</time>
      </trkpt>
      <trkpt lat="45.93504" lon="6.74816">
        <ele>863</ele>
        <time>2019-08-07T16:20:55Z</time>
      </trkpt>
      <trkpt lat="45.93437" lon="6.74869">
        <ele>852</ele>
        <time>2019-08-07T16:21:08Z</time>
      </trkpt>
      <trkpt lat="45.9342" lon="6.74948">
        <ele>859</ele>
        <time>2019-08-07T16:21:19Z</time>
      </trkpt>
      <trkpt lat="45.93369" lon="6.74947">
        <ele>849</ele>
        <time>2019-08-07T16:21:28Z</time>
      </trkpt>
      <trkpt lat="45.93248" lon="6.75083">
        <ele>845</ele>
        <time>2019-08-07T16:21:55Z</time>
      </trkpt>
      <trkpt lat="45.93205" lon="6.75221">
        <ele>836</ele>
        <time>2019-08-07T16:22:14Z</time>
      </trkpt>
      <trkpt lat="45.93171" lon="6.75555">
        <ele>831</ele>
        <time>2019-08-07T16:22:55Z</time>
      </trkpt>
      <trkpt lat="45.93116" lon="6.75708">
        <ele>821</ele>
        <time>2019-08-07T16:23:17Z</time>
      </trkpt>
      <trkpt lat="45.93197" lon="6.76002">
        <ele>819</ele>
        <time>2019-08-07T16:23:56Z</time>
      </trkpt>
      <trkpt lat="45.93176" lon="6.76417">
        <ele>816</ele>
        <time>2019-08-07T16:24:47Z</time>
      </trkpt>
      <trkpt lat="45.93168" lon="6.76681">
        <ele>821</ele>
        <time>2019-08-07T16:25:20Z</time>
      </trkpt>
      <trkpt lat="45.93064" lon="6.7696">
        <ele>823</ele>
        <time>2019-08-07T16:25:59Z</time>
      </trkpt>
      <trkpt lat="45.93014" lon="6.77024">
        <ele>823</ele>
        <time>2019-08-07T16:26:11Z</time>
      </trkpt>
      <trkpt lat="45.92116" lon="6.77138">
        <ele>842</ele>
        <time>2019-08-07T16:28:52Z</time>
      </trkpt>
      <trkpt lat="45.92053" lon="6.77117">
        <ele>831</ele>
        <time>2019-08-07T16:29:03Z</time>
      </trkpt>
      <trkpt lat="45.91883" lon="6.7721">
        <ele>851</ele>
        <time>2019-08-07T16:29:35Z</time>
      </trkpt>
      <trkpt lat="45.91744" lon="6.77253">
        <ele>843</ele>
        <time>2019-08-07T16:30:01Z</time>
      </trkpt>
      <trkpt lat="45.91675" lon="6.77293">
        <ele>861</ele>
        <time>2019-08-07T16:30:14Z</time>
      </trkpt>
      <trkpt lat="45.91576" lon="6.77288">
        <ele>856</ele>
        <time>2019-08-07T16:30:32Z</time>
      </trkpt>
      <trkpt lat="45.91556" lon="6.77219">
        <ele>844</ele>
        <time>2019-08-07T16:30:41Z</time>
      </trkpt>
      <trkpt lat="45.91574" lon="6.77049">
        <ele>860</ele>
        <time>2019-08-07T16:31:02Z</time>
      </trkpt>
      <trkpt lat="45.91528" lon="6.77023">
        <ele>863</ele>
        <time>2019-08-07T16:31:11Z</time>
      </trkpt>
      <trkpt lat="45.91466" lon="6.7715">
        <ele>864</ele>
        <time>2019-08-07T16:31:30Z</time>
      </trkpt>
      <trkpt lat="45.91408" lon="6.77249">
        <ele>857</ele>
        <time>2019-08-07T16:31:46Z</time>
      </trkpt>
      <trkpt lat="45.91377" lon="6.77243">
        <ele>860</ele>
        <time>2019-08-07T16:31:52Z</time>
      </trkpt>
      <trkpt lat="45.91378" lon="6.77211">
        <ele>863</ele>
        <time>2019-08-07T16:31:56Z</time>
      </trkpt>
      <trkpt lat="45.91414" lon="6.77169">
        <ele>865</ele>
        <time>2019-08-07T16:32:04Z</time>
      </trkpt>
      <trkpt lat="45.91519" lon="6.76964">
        <ele>864</ele>
        <time>2019-08-07T16:32:35Z</time>
      </trkpt>
      <trkpt lat="45.91504" lon="6.76869">
        <ele>859</ele>
        <time>2019-08-07T16:32:47Z</time>
      </trkpt>
      <trkpt lat="45.91527" lon="6.76742">
        <ele>854</ele>
        <time>2019-08-07T16:33:04Z</time>
      </trkpt>
      <trkpt lat="45.91552" lon="6.76696">
        <ele>852</ele>
        <time>2019-08-07T16:33:11Z</time>
      </trkpt>
      <trkpt lat="45.91535" lon="6.76656">
        <ele>852</ele>
        <time>2019-08-07T16:33:17Z</time>
      </trkpt>
      <trkpt lat="45.9147" lon="6.7665">
        <ele>858</ele>
        <time>2019-08-07T16:33:28Z</time>
      </trkpt>
      <trkpt lat="45.91444" lon="6.76639">
        <ele>862</ele>
        <time>2019-08-07T16:33:33Z</time>
      </trkpt>
      <trkpt lat="45.91445" lon="6.76613">
        <ele>862</ele>
        <time>2019-08-07T16:33:36Z</time>
      </trkpt>
      <trkpt lat="45.91494" lon="6.76568">
        <ele>856</ele>
        <time>2019-08-07T16:33:47Z</time>
      </trkpt>
      <trkpt lat="45.9149" lon="6.76539">
        <ele>857</ele>
        <time>2019-08-07T16:33:50Z</time>
      </trkpt>
      <trkpt lat="45.91455" lon="6.76572">
        <ele>862</ele>
        <time>2019-08-07T16:33:58Z</time>
      </trkpt>
      <trkpt lat="45.91424" lon="6.76556">
        <ele>868</ele>
        <time>2019-08-07T16:34:04Z</time>
      </trkpt>
      <trkpt lat="45.91385" lon="6.76572">
        <ele>872</ele>
        <time>2019-08-07T16:34:11Z</time>
      </trkpt>
      <trkpt lat="45.91303" lon="6.76675">
        <ele>880</ele>
        <time>2019-08-07T16:34:30Z</time>
      </trkpt>
      <trkpt lat="45.9124" lon="6.76599">
        <ele>888</ele>
        <time>2019-08-07T16:34:45Z</time>
      </trkpt>
      <trkpt lat="45.91227" lon="6.76544">
        <ele>899</ele>
        <time>2019-08-07T16:34:52Z</time>
      </trkpt>
      <trkpt lat="45.91208" lon="6.76552">
        <ele>900</ele>
        <time>2019-08-07T16:34:56Z</time>
      </trkpt>
      <trkpt lat="45.91181" lon="6.76666">
        <ele>896</ele>
        <time>2019-08-07T16:35:11Z</time>
      </trkpt>
      <trkpt lat="45.91105" lon="6.76663">
        <ele>907</ele>
        <time>2019-08-07T16:35:24Z</time>
      </trkpt>
      <trkpt lat="45.91134" lon="6.76617">
        <ele>904</ele>
        <time>2019-08-07T16:35:32Z</time>
      </trkpt>
      <trkpt lat="45.9115" lon="6.76553">
        <ele>910</ele>
        <time>2019-08-07T16:35:40Z</time>
      </trkpt>
      <trkpt lat="45.91134" lon="6.76539">
        <ele>915</ele>
        <time>2019-08-07T16:35:44Z</time>
      </trkpt>
      <trkpt lat="45.91091" lon="6.76565">
        <ele>916</ele>
        <time>2019-08-07T16:35:52Z</time>
      </trkpt>
      <trkpt lat="45.91085" lon="6.76655">
        <ele>910</ele>
        <time>2019-08-07T16:36:03Z</time>
      </trkpt>
      <trkpt lat="45.91034" lon="6.76689">
        <ele>919</ele>
        <time>2019-08-07T16:36:13Z</time>
      </trkpt>
      <trkpt lat="45.90962" lon="6.7668">
        <ele>941</ele>
        <time>2019-08-07T16:36:26Z</time>
      </trkpt>
      <trkpt lat="45.90999" lon="6.76593">
        <ele>942</ele>
        <time>2019-08-07T16:36:38Z</time>
      </trkpt>
      <trkpt lat="45.91035" lon="6.7656">
        <ele>938</ele>
        <time>2019-08-07T16:36:46Z</time>
      </trkpt>
      <trkpt lat="45.91001" lon="6.76551">
        <ele>956</ele>
        <time>2019-08-07T16:36:52Z</time>
      </trkpt>
      <trkpt lat="45.90946" lon="6.76624">
        <ele>957</ele>
        <time>2019-08-07T16:37:06Z</time>
      </trkpt>
      <trkpt lat="45.90922" lon="6.76664">
        <ele>959</ele>
        <time>2019-08-07T16:37:12Z</time>
      </trkpt>
      <trkpt lat="45.90934" lon="6.76714">
        <ele>952</ele>
        <time>2019-08-07T16:37:19Z</time>
      </trkpt>
      <trkpt lat="45.90922" lon="6.76783">
        <ele>954</ele>
        <time>2019-08-07T16:37:27Z</time>
      </trkpt>
      <trkpt lat="45.90862" lon="6.76827">
        <ele>965</ele>
        <time>2019-08-07T16:37:39Z</time>
      </trkpt>
      <trkpt lat="45.90849" lon="6.768">
        <ele>969</ele>
        <time>2019-08-07T16:37:43Z</time>
      </trkpt>
      <trkpt lat="45.90896" lon="6.76756">
        <ele>962</ele>
        <time>2019-08-07T16:37:53Z</time>
      </trkpt>
      <trkpt lat="45.90864" lon="6.76721">
        <ele>973</ele>
        <time>2019-08-07T16:38:01Z</time>
      </trkpt>
      <trkpt lat="45.90828" lon="6.76779">
        <ele>977</ele>
        <time>2019-08-07T16:38:10Z</time>
      </trkpt>
      <trkpt lat="45.90806" lon="6.76755">
        <ele>987</ele>
        <time>2019-08-07T16:38:15Z</time>
      </trkpt>
      <trkpt lat="45.90836" lon="6.76686">
        <ele>986</ele>
        <time>2019-08-07T16:38:25Z</time>
      </trkpt>
      <trkpt lat="45.9084" lon="6.7657">
        <ele>1010</ele>
        <time>2019-08-07T16:38:40Z</time>
      </trkpt>
      <trkpt lat="45.91013" lon="6.76426">
        <ele>990</ele>
        <time>2019-08-07T16:39:15Z</time>
      </trkpt>
      <trkpt lat="45.91007" lon="6.764">
        <ele>995</ele>
        <time>2019-08-07T16:39:19Z</time>
      </trkpt>
      <trkpt lat="45.9087" lon="6.76379">
        <ele>1019</ele>
        <time>2019-08-07T16:39:43Z</time>
      </trkpt>
      <trkpt lat="45.90872" lon="6.76331">
        <ele>1014</ele>
        <time>2019-08-07T16:39:49Z</time>
      </trkpt>
      <trkpt lat="45.9095" lon="6.76247">
        <ele>1014</ele>
        <time>2019-08-07T16:40:06Z</time>
      </trkpt>
      <trkpt lat="45.90949" lon="6.76205">
        <ele>1024</ele>
        <time>2019-08-07T16:40:12Z</time>
      </trkpt>
      <trkpt lat="45.90868" lon="6.76273">
        <ele>1022</ele>
        <time>2019-08-07T16:40:28Z</time>
      </trkpt>
      <trkpt lat="45.90749" lon="6.76327">
        <ele>1037</ele>
        <time>2019-08-07T16:40:50Z</time>
      </trkpt>
      <trkpt lat="45.90738" lon="6.7631">
        <ele>1041</ele>
        <time>2019-08-07T16:40:53Z</time>
      </trkpt>
      <trkpt lat="45.9078" lon="6.76265">
        <ele>1040</ele>
        <time>2019-08-07T16:41:03Z</time>
      </trkpt>
      <trkpt lat="45.90827" lon="6.76224">
        <ele>1040</ele>
        <time>2019-08-07T16:41:12Z</time>
      </trkpt>
      <trkpt lat="45.9082" lon="6.76172">
        <ele>1055</ele>
        <time>2019-08-07T16:41:19Z</time>
      </trkpt>
      <trkpt lat="45.90747" lon="6.76189">
        <ele>1059</ele>
        <time>2019-08-07T16:41:32Z</time>
      </trkpt>
      <trkpt lat="45.90711" lon="6.7625">
        <ele>1053</ele>
        <time>2019-08-07T16:41:42Z</time>
      </trkpt>
      <trkpt lat="45.90657" lon="6.76246">
        <ele>1063</ele>
        <time>2019-08-07T16:41:52Z</time>
      </trkpt>
      <trkpt lat="45.90645" lon="6.76219">
        <ele>1069</ele>
        <time>2019-08-07T16:41:56Z</time>
      </trkpt>
      <trkpt lat="45.90691" lon="6.76178">
        <ele>1068</ele>
        <time>2019-08-07T16:42:05Z</time>
      </trkpt>
      <trkpt lat="45.90676" lon="6.76163">
        <ele>1072</ele>
        <time>2019-08-07T16:42:09Z</time>
      </trkpt>
      <trkpt lat="45.90564" lon="6.76206">
        <ele>1089</ele>
        <time>2019-08-07T16:42:29Z</time>
      </trkpt>
      <trkpt lat="45.90523" lon="6.76461">
        <ele>1100</ele>
        <time>2019-08-07T16:43:02Z</time>
      </trkpt>
      <trkpt lat="45.90558" lon="6.7647">
        <ele>1090</ele>
        <time>2019-08-07T16:43:08Z</time>
      </trkpt>
      <trkpt lat="45.90587" lon="6.7655">
        <ele>1086</ele>
        <time>2019-08-07T16:43:19Z</time>
      </trkpt>
      <trkpt lat="45.90489" lon="6.76674">
        <ele>1126</ele>
        <time>2019-08-07T16:43:42Z</time>
      </trkpt>
      <trkpt lat="45.90479" lon="6.76828">
        <ele>1130</ele>
        <time>2019-08-07T16:44:01Z</time>
      </trkpt>
      <trkpt lat="45.90481" lon="6.76896">
        <ele>1129</ele>
        <time>2019-08-07T16:44:10Z</time>
      </trkpt>
      <trkpt lat="45.90516" lon="6.77025">
        <ele>1106</ele>
        <time>2019-08-07T16:44:27Z</time>
      </trkpt>
      <trkpt lat="45.90379" lon="6.77246">
        <ele>1104</ele>
        <time>2019-08-07T16:45:04Z</time>
      </trkpt>
      <trkpt lat="45.90206" lon="6.77336">
        <ele>1106</ele>
        <time>2019-08-07T16:45:36Z</time>
      </trkpt>
      <trkpt lat="45.90141" lon="6.77446">
        <ele>1084</ele>
        <time>2019-08-07T16:45:54Z</time>
      </trkpt>
      <trkpt lat="45.89998" lon="6.77361">
        <ele>1082</ele>
        <time>2019-08-07T16:46:22Z</time>
      </trkpt>
      <trkpt lat="45.89894" lon="6.77265">
        <ele>1077</ele>
        <time>2019-08-07T16:46:44Z</time>
      </trkpt>
      <trkpt lat="45.89785" lon="6.77221">
        <ele>1068</ele>
        <time>2019-08-07T16:47:04Z</time>
      </trkpt>
      <trkpt lat="45.89733" lon="6.77236">
        <ele>1060</ele>
        <time>2019-08-07T16:47:13Z</time>
      </trkpt>
      <trkpt lat="45.89692" lon="6.77423">
        <ele>1044</ele>
        <time>2019-08-07T16:47:38Z</time>
      </trkpt>
      <trkpt lat="45.89664" lon="6.77792">
        <ele>1027</ele>
        <time>2019-08-07T16:48:24Z</time>
      </trkpt>
      <trkpt lat="45.89502" lon="6.78111">
        <ele>1017</ele>
        <time>2019-08-07T16:49:13Z</time>
      </trkpt>
      <trkpt lat="45.89437" lon="6.78325">
        <ele>1012</ele>
        <time>2019-08-07T16:49:41Z</time>
      </trkpt>
      <trkpt lat="45.89363" lon="6.78442">
        <ele>1014</ele>
        <time>2019-08-07T16:50:01Z</time>
      </trkpt>
      <trkpt lat="45.89274" lon="6.78538">
        <ele>1011</ele>
        <time>2019-08-07T16:50:21Z</time>
      </trkpt>
      <trkpt lat="45.89194" lon="6.78612">
        <ele>1003</ele>
        <time>2019-08-07T16:50:38Z</time>
      </trkpt>
      <trkpt lat="45.89112" lon="6.78589">
        <ele>1014</ele>
        <time>2019-08-07T16:50:53Z</time>
      </trkpt>
      <trkpt lat="45.89034" lon="6.78734">
        <ele>1002</ele>
        <time>2019-08-07T16:51:15Z</time>
      </trkpt>
      <trkpt lat="45.8893" lon="6.7902">
        <ele>1003</ele>
        <time>2019-08-07T16:51:55Z</time>
      </trkpt>
      <trkpt lat="45.88915" lon="6.79241">
        <ele>1011</ele>
        <time>2019-08-07T16:52:23Z</time>
      </trkpt>
      <trkpt lat="45.88936" lon="6.79381">
        <ele>1015</ele>
        <time>2019-08-07T16:52:41Z</time>
      </trkpt>
      <trkpt lat="45.88925" lon="6.79555">
        <ele>1016</ele>
        <time>2019-08-07T16:53:02Z</time>
      </trkpt>
      <trkpt lat="45.8896" lon="6.79751">
        <ele>1011</ele>
        <time>2019-08-07T16:53:27Z</time>
      </trkpt>
      <trkpt lat="45.89048" lon="6.79861">
        <ele>1011</ele>
        <time>2019-08-07T16:53:48Z</time>
      </trkpt>
      <trkpt lat="45.89177" lon="6.79907">
        <ele>1007</ele>
        <time>2019-08-07T16:54:12Z</time>
      </trkpt>
      <trkpt lat="45.89345" lon="6.80092">
        <ele>999</ele>
        <time>2019-08-07T16:54:49Z</time>
      </trkpt>
      <trkpt lat="45.89432" lon="6.8017">
        <ele>997</ele>
        <time>2019-08-07T16:55:08Z</time>
      </trkpt>
      <trkpt lat="45.89567" lon="6.80507">
        <ele>996</ele>
        <time>2019-08-07T16:55:56Z</time>
      </trkpt>
      <trkpt lat="45.89589" lon="6.80867">
        <ele>999</ele>
        <time>2019-08-07T16:56:40Z</time>
      </trkpt>
      <trkpt lat="45.89599" lon="6.80961">
        <ele>1002</ele>
        <time>2019-08-07T16:56:52Z</time>
      </trkpt>
      <trkpt lat="45.8971" lon="6.81216">
        <ele>1001</ele>
        <time>2019-08-07T16:57:29Z</time>
      </trkpt>
      <trkpt lat="45.89702" lon="6.81431">
        <ele>1005</ele>
        <time>2019-08-07T16:57:56Z</time>
      </trkpt>
      <trkpt lat="45.89711" lon="6.81587">
        <ele>1005</ele>
        <time>2019-08-07T16:58:15Z</time>
      </trkpt>
      <trkpt lat="45.89741" lon="6.81696">
        <ele>1004</ele>
        <time>2019-08-07T16:58:30Z</time>
      </trkpt>
      <trkpt lat="45.8969" lon="6.8195">
        <ele>1008</ele>
        <time>2019-08-07T16:59:03Z</time>
      </trkpt>
      <trkpt lat="45.89687" lon="6.82146">
        <ele>1008</ele>
        <time>2019-08-07T16:59:27Z</time>
      </trkpt>
      <trkpt lat="45.89576" lon="6.82156">
        <ele>1025</ele>
        <time>2019-08-07T16:59:47Z</time>
      </trkpt>
      <trkpt lat="45.89589" lon="6.82383">
        <ele>1022</ele>
        <time>2019-08-07T17:00:15Z</time>
      </trkpt>
      <trkpt lat="45.89591" lon="6.82522">
        <ele>1025</ele>
        <time>2019-08-07T17:00:32Z</time>
      </trkpt>
      <trkpt lat="45.8961" lon="6.82653">
        <ele>1031</ele>
        <time>2019-08-07T17:00:49Z</time>
      </trkpt>
      <trkpt lat="45.89665" lon="6.82648">
        <ele>1027</ele>
        <time>2019-08-07T17:00:59Z</time>
      </trkpt>
      <trkpt lat="45.89693" lon="6.82566">
        <ele>1020</ele>
        <time>2019-08-07T17:01:10Z</time>
      </trkpt>
      <trkpt lat="45.89721" lon="6.82417">
        <ele>1012</ele>
        <time>2019-08-07T17:01:29Z</time>
      </trkpt>
      <trkpt lat="45.89796" lon="6.82342">
        <ele>1003</ele>
        <time>2019-08-07T17:01:45Z</time>
      </trkpt>
      <trkpt lat="45.89891" lon="6.82566">
        <ele>1007</ele>
        <time>2019-08-07T17:02:18Z</time>
      </trkpt>
      <trkpt lat="45.89959" lon="6.82662">
        <ele>1006</ele>
        <time>2019-08-07T17:02:35Z</time>
      </trkpt>
      <trkpt lat="45.90018" lon="6.82815">
        <ele>1005</ele>
        <time>2019-08-07T17:02:56Z</time>
      </trkpt>
      <trkpt lat="45.90225" lon="6.8301">
        <ele>1006</ele>
        <time>2019-08-07T17:03:40Z</time>
      </trkpt>
      <trkpt lat="45.90467" lon="6.83598">
        <ele>1013</ele>
        <time>2019-08-07T17:05:05Z</time>
      </trkpt>
      <trkpt lat="45.90719" lon="6.84064">
        <ele>1021</ele>
        <time>2019-08-07T17:06:18Z</time>
      </trkpt>
      <trkpt lat="45.9091" lon="6.84354">
        <ele>1019</ele>
        <time>2019-08-07T17:07:08Z</time>
      </trkpt>
      <trkpt lat="45.90998" lon="6.84354">
        <ele>1025</ele>
        <time>2019-08-07T17:07:23Z</time>
      </trkpt>
      <trkpt lat="45.91069" lon="6.84434">
        <ele>1029</ele>
        <time>2019-08-07T17:07:39Z</time>
      </trkpt>
      <trkpt lat="45.91108" lon="6.84467">
        <ele>1031</ele>
        <time>2019-08-07T17:07:47Z</time>
      </trkpt>
      <trkpt lat="45.91152" lon="6.84545">
        <ele>1026</ele>
        <time>2019-08-07T17:08:00Z</time>
      </trkpt>
      <trkpt lat="45.91518" lon="6.84862">
        <ele>1028</ele>
        <time>2019-08-07T17:09:16Z</time>
      </trkpt>
      <trkpt lat="45.91581" lon="6.8497">
        <ele>1031</ele>
        <time>2019-08-07T17:09:33Z</time>
      </trkpt>
      <trkpt lat="45.91613" lon="6.85186">
        <ele>1028</ele>
        <time>2019-08-07T17:10:01Z</time>
      </trkpt>
      <trkpt lat="45.91615" lon="6.85261">
        <ele>1032</ele>
        <time>2019-08-07T17:10:10Z</time>
      </trkpt>
      <trkpt lat="45.91629" lon="6.85417">
        <ele>1029</ele>
        <time>2019-08-07T17:10:29Z</time>
      </trkpt>
      <trkpt lat="45.91618" lon="6.85571">
        <ele>1033</ele>
        <time>2019-08-07T17:10:48Z</time>
      </trkpt>
      <trkpt lat="45.91765" lon="6.86232">
        <ele>1034</ele>
        <time>2019-08-07T17:12:14Z</time>
      </trkpt>
      <trkpt lat="45.9184" lon="6.86435">
        <ele>1035</ele>
        <time>2019-08-07T17:12:43Z</time>
      </trkpt>
      <trkpt lat="45.91914" lon="6.86554">
        <ele>1036</ele>
        <time>2019-08-07T17:13:03Z</time>
      </trkpt>
      <trkpt lat="45.92026" lon="6.86569">
        <ele>1044</ele>
        <time>2019-08-07T17:13:23Z</time>
      </trkpt>
      <trkpt lat="45.922" lon="6.86729">
        <ele>1048</ele>
        <time>2019-08-07T17:13:59Z</time>
      </trkpt>
      <trkpt lat="45.92365" lon="6.86765">
        <ele>1048</ele>
        <time>2019-08-07T17:14:29Z</time>
      </trkpt>
      <trkpt lat="45.92563" lon="6.8683">
        <ele>1048</ele>
        <time>2019-08-07T17:15:05Z</time>
      </trkpt>
      <trkpt lat="45.92534" lon="6.86989">
        <ele>1044</ele>
        <time>2019-08-07T17:15:26Z</time>
      </trkpt>
      <trkpt lat="45.92792" lon="6.8702">
        <ele>1049</ele>
        <time>2019-08-07T17:16:12Z</time>
      </trkpt>
      <trkpt lat="45.92816" lon="6.87029">
        <ele>1050</ele>
        <time>2019-08-07T17:16:16Z</time>
      </trkpt>
      <trkpt lat="45.92973" lon="6.87103">
        <ele>1053</ele>
        <time>2019-08-07T17:16:45Z</time>
      </trkpt>
      <trkpt lat="45.93091" lon="6.87258">
        <ele>1055</ele>
        <time>2019-08-07T17:17:14Z</time>
      </trkpt>
      <trkpt lat="45.93238" lon="6.87367">
        <ele>1059</ele>
        <time>2019-08-07T17:17:43Z</time>
      </trkpt>
      <trkpt lat="45.93402" lon="6.87597">
        <ele>1055</ele>
        <time>2019-08-07T17:18:24Z</time>
      </trkpt>
      <trkpt lat="45.93693" lon="6.87753">
        <ele>1059</ele>
        <time>2019-08-07T17:19:19Z</time>
      </trkpt>
      <trkpt lat="45.93809" lon="6.87883">
        <ele>1062</ele>
        <time>2019-08-07T17:19:45Z</time>
      </trkpt>
      <trkpt lat="45.9398" lon="6.8801">
        <ele>1065</ele>
        <time>2019-08-07T17:20:20Z</time>
      </trkpt>
      <trkpt lat="45.94002" lon="6.88063">
        <ele>1062</ele>
        <time>2019-08-07T17:20:27Z</time>
      </trkpt>
      <trkpt lat="45.93985" lon="6.8823">
        <ele>1062</ele>
        <time>2019-08-07T17:20:48Z</time>
      </trkpt>
      <trkpt lat="45.94031" lon="6.88595">
        <ele>1063</ele>
        <time>2019-08-07T17:21:34Z</time>
      </trkpt>
      <trkpt lat="45.94245" lon="6.88868">
        <ele>1064</ele>
        <time>2019-08-07T17:22:25Z</time>
      </trkpt>
      <trkpt lat="45.94709" lon="6.89472">
        <ele>1076</ele>
        <time>2019-08-07T17:24:16Z</time>
      </trkpt>
      <trkpt lat="45.9497" lon="6.89826">
        <ele>1084</ele>
        <time>2019-08-07T17:25:20Z</time>
      </trkpt>
      <trkpt lat="45.95025" lon="6.8985">
        <ele>1086</ele>
        <time>2019-08-07T17:25:30Z</time>
      </trkpt>
      <trkpt lat="45.95046" lon="6.89943">
        <ele>1090</ele>
        <time>2019-08-07T17:25:43Z</time>
      </trkpt>
      <trkpt lat="45.95295" lon="6.90244">
        <ele>1123</ele>
        <time>2019-08-07T17:26:40Z</time>
      </trkpt>
      <trkpt lat="45.95457" lon="6.90251">
        <ele>1119</ele>
        <time>2019-08-07T17:27:09Z</time>
      </trkpt>
      <trkpt lat="45.95518" lon="6.90298">
        <ele>1140</ele>
        <time>2019-08-07T17:27:22Z</time>
      </trkpt>
      <trkpt lat="45.95773" lon="6.90287">
        <ele>1151</ele>
        <time>2019-08-07T17:28:07Z</time>
      </trkpt>
      <trkpt lat="45.95808" lon="6.90326">
        <ele>1155</ele>
        <time>2019-08-07T17:28:15Z</time>
      </trkpt>
      <trkpt lat="45.95857" lon="6.90327">
        <ele>1155</ele>
        <time>2019-08-07T17:28:24Z</time>
      </trkpt>
      <trkpt lat="45.95927" lon="6.90555">
        <ele>1162</ele>
        <time>2019-08-07T17:28:54Z</time>
      </trkpt>
      <trkpt lat="45.96014" lon="6.90744">
        <ele>1173</ele>
        <time>2019-08-07T17:29:22Z</time>
      </trkpt>
      <trkpt lat="45.96175" lon="6.90938">
        <ele>1187</ele>
        <time>2019-08-07T17:30:00Z</time>
      </trkpt>
      <trkpt lat="45.96222" lon="6.90945">
        <ele>1188</ele>
        <time>2019-08-07T17:30:08Z</time>
      </trkpt>
      <trkpt lat="45.96317" lon="6.91108">
        <ele>1192</ele>
        <time>2019-08-07T17:30:34Z</time>
      </trkpt>
      <trkpt lat="45.96456" lon="6.91239">
        <ele>1185</ele>
        <time>2019-08-07T17:31:04Z</time>
      </trkpt>
      <trkpt lat="45.9674" lon="6.91344">
        <ele>1185</ele>
        <time>2019-08-07T17:31:56Z</time>
      </trkpt>
      <trkpt lat="45.96873" lon="6.91449">
        <ele>1194</ele>
        <time>2019-08-07T17:32:23Z</time>
      </trkpt>
      <trkpt lat="45.97054" lon="6.91664">
        <ele>1200</ele>
        <time>2019-08-07T17:33:05Z</time>
      </trkpt>
      <trkpt lat="45.97226" lon="6.91798">
        <ele>1205</ele>
        <time>2019-08-07T17:33:40Z</time>
      </trkpt>
      <trkpt lat="45.97362" lon="6.91952">
        <ele>1213</ele>
        <time>2019-08-07T17:34:11Z</time>
      </trkpt>
      <trkpt lat="45.97556" lon="6.921">
        <ele>1215</ele>
        <time>2019-08-07T17:34:50Z</time>
      </trkpt>
      <trkpt lat="45.97633" lon="6.92055">
        <ele>1218</ele>
        <time>2019-08-07T17:35:04Z</time>
      </trkpt>
      <trkpt lat="45.97985" lon="6.92362">
        <ele>1238</ele>
        <time>2019-08-07T17:36:18Z</time>
      </trkpt>
      <trkpt lat="45.98156" lon="6.92545">
        <ele>1245</ele>
        <time>2019-08-07T17:36:56Z</time>
      </trkpt>
      <trkpt lat="45.98475" lon="6.92711">
        <ele>1269</ele>
        <time>2019-08-07T17:37:56Z</time>
      </trkpt>
      <trkpt lat="45.98563" lon="6.92728">
        <ele>1279</ele>
        <time>2019-08-07T17:38:12Z</time>
      </trkpt>
      <trkpt lat="45.98703" lon="6.9282">
        <ele>1287</ele>
        <time>2019-08-07T17:38:39Z</time>
      </trkpt>
      <trkpt lat="45.98895" lon="6.92869">
        <ele>1314</ele>
        <time>2019-08-07T17:39:14Z</time>
      </trkpt>
      <trkpt lat="45.98967" lon="6.92862">
        <ele>1315</ele>
        <time>2019-08-07T17:39:27Z</time>
      </trkpt>
      <trkpt lat="45.99029" lon="6.92886">
        <ele>1315</ele>
        <time>2019-08-07T17:39:38Z</time>
      </trkpt>
      <trkpt lat="45.99048" lon="6.92859">
        <ele>1320</ele>
        <time>2019-08-07T17:39:43Z</time>
      </trkpt>
      <trkpt lat="45.98947" lon="6.92799">
        <ele>1332</ele>
        <time>2019-08-07T17:40:02Z</time>
      </trkpt>
      <trkpt lat="45.98976" lon="6.92762">
        <ele>1339</ele>
        <time>2019-08-07T17:40:09Z</time>
      </trkpt>
      <trkpt lat="45.99069" lon="6.92802">
        <ele>1331</ele>
        <time>2019-08-07T17:40:26Z</time>
      </trkpt>
      <trkpt lat="45.99115" lon="6.9278">
        <ele>1346</ele>
        <time>2019-08-07T17:40:35Z</time>
      </trkpt>
      <trkpt lat="45.991" lon="6.92747">
        <ele>1347</ele>
        <time>2019-08-07T17:40:40Z</time>
      </trkpt>
      <trkpt lat="45.9906" lon="6.92743">
        <ele>1344</ele>
        <time>2019-08-07T17:40:47Z</time>
      </trkpt>
      <trkpt lat="45.99008" lon="6.92694">
        <ele>1359</ele>
        <time>2019-08-07T17:40:58Z</time>
      </trkpt>
      <trkpt lat="45.98897" lon="6.92749">
        <ele>1350</ele>
        <time>2019-08-07T17:41:19Z</time>
      </trkpt>
      <trkpt lat="45.98856" lon="6.92707">
        <ele>1361</ele>
        <time>2019-08-07T17:41:28Z</time>
      </trkpt>
      <trkpt lat="45.98878" lon="6.92664">
        <ele>1374</ele>
        <time>2019-08-07T17:41:35Z</time>
      </trkpt>
      <trkpt lat="45.99082" lon="6.92655">
        <ele>1378</ele>
        <time>2019-08-07T17:42:11Z</time>
      </trkpt>
      <trkpt lat="45.9925" lon="6.92675">
        <ele>1398</ele>
        <time>2019-08-07T17:42:41Z</time>
      </trkpt>
      <trkpt lat="45.99487" lon="6.92669">
        <ele>1422</ele>
        <time>2019-08-07T17:43:23Z</time>
      </trkpt>
      <trkpt lat="45.99604" lon="6.92669">
        <ele>1419</ele>
        <time>2019-08-07T17:43:44Z</time>
      </trkpt>
      <trkpt lat="45.99728" lon="6.92596">
        <ele>1428</ele>
        <time>2019-08-07T17:44:08Z</time>
      </trkpt>
      <trkpt lat="45.99877" lon="6.92388">
        <ele>1444</ele>
        <time>2019-08-07T17:44:45Z</time>
      </trkpt>
      <trkpt lat="46.0002" lon="6.92291">
        <ele>1451</ele>
        <time>2019-08-07T17:45:13Z</time>
      </trkpt>
      <trkpt lat="46.00242" lon="6.92309">
        <ele>1458</ele>
        <time>2019-08-07T17:45:52Z</time>
      </trkpt>
      <trkpt lat="46.00387" lon="6.92347">
        <ele>1465</ele>
        <time>2019-08-07T17:46:19Z</time>
      </trkpt>
      <trkpt lat="46.00396" lon="6.92365">
        <ele>1467</ele>
        <time>2019-08-07T17:46:21Z</time>
      </trkpt>
      <trkpt lat="46.00405" lon="6.92367">
        <ele>1467</ele>
        <time>2019-08-07T17:46:23Z</time>
      </trkpt>
      <trkpt lat="46.00526" lon="6.92339">
        <ele>1455</ele>
        <time>2019-08-07T17:46:45Z</time>
      </trkpt>
      <trkpt lat="46.00643" lon="6.92319">
        <ele>1443</ele>
        <time>2019-08-07T17:47:06Z</time>
      </trkpt>
      <trkpt lat="46.00713" lon="6.92301">
        <ele>1437</ele>
        <time>2019-08-07T17:47:18Z</time>
      </trkpt>
      <trkpt lat="46.00772" lon="6.92289">
        <ele>1434</ele>
        <time>2019-08-07T17:47:29Z</time>
      </trkpt>
      <trkpt lat="46.0078" lon="6.9229">
        <ele>1434</ele>
        <time>2019-08-07T17:47:30Z</time>
      </trkpt>
      <trkpt lat="46.00799" lon="6.923">
        <ele>1433</ele>
        <time>2019-08-07T17:47:34Z</time>
      </trkpt>
      <trkpt lat="46.00834" lon="6.92332">
        <ele>1427</ele>
        <time>2019-08-07T17:47:41Z</time>
      </trkpt>
      <trkpt lat="46.00845" lon="6.92337">
        <ele>1427</ele>
        <time>2019-08-07T17:47:43Z</time>
      </trkpt>
      <trkpt lat="46.00899" lon="6.92345">
        <ele>1425</ele>
        <time>2019-08-07T17:47:53Z</time>
      </trkpt>
      <trkpt lat="46.0095" lon="6.92376">
        <ele>1418</ele>
        <time>2019-08-07T17:48:03Z</time>
      </trkpt>
      <trkpt lat="46.00999" lon="6.92389">
        <ele>1414</ele>
        <time>2019-08-07T17:48:12Z</time>
      </trkpt>
      <trkpt lat="46.01008" lon="6.92386">
        <ele>1414</ele>
        <time>2019-08-07T17:48:13Z</time>
      </trkpt>
      <trkpt lat="46.01016" lon="6.92379">
        <ele>1413</ele>
        <time>2019-08-07T17:48:15Z</time>
      </trkpt>
      <trkpt lat="46.01038" lon="6.92352">
        <ele>1411</ele>
        <time>2019-08-07T17:48:20Z</time>
      </trkpt>
      <trkpt lat="46.01055" lon="6.92338">
        <ele>1409</ele>
        <time>2019-08-07T17:48:24Z</time>
      </trkpt>
      <trkpt lat="46.01074" lon="6.92334">
        <ele>1408</ele>
        <time>2019-08-07T17:48:27Z</time>
      </trkpt>
      <trkpt lat="46.01117" lon="6.92333">
        <ele>1403</ele>
        <time>2019-08-07T17:48:35Z</time>
      </trkpt>
      <trkpt lat="46.01129" lon="6.92328">
        <ele>1402</ele>
        <time>2019-08-07T17:48:37Z</time>
      </trkpt>
      <trkpt lat="46.01139" lon="6.92318">
        <ele>1402</ele>
        <time>2019-08-07T17:48:39Z</time>
      </trkpt>
      <trkpt lat="46.01146" lon="6.92302">
        <ele>1401</ele>
        <time>2019-08-07T17:48:42Z</time>
      </trkpt>
      <trkpt lat="46.01162" lon="6.92242">
        <ele>1401</ele>
        <time>2019-08-07T17:48:49Z</time>
      </trkpt>
      <trkpt lat="46.01178" lon="6.92216">
        <ele>1404</ele>
        <time>2019-08-07T17:48:54Z</time>
      </trkpt>
      <trkpt lat="46.01203" lon="6.92197">
        <ele>1405</ele>
        <time>2019-08-07T17:48:59Z</time>
      </trkpt>
      <trkpt lat="46.01232" lon="6.92187">
        <ele>1402</ele>
        <time>2019-08-07T17:49:04Z</time>
      </trkpt>
      <trkpt lat="46.01246" lon="6.92178">
        <ele>1401</ele>
        <time>2019-08-07T17:49:07Z</time>
      </trkpt>
      <trkpt lat="46.01293" lon="6.92133">
        <ele>1398</ele>
        <time>2019-08-07T17:49:17Z</time>
      </trkpt>
      <trkpt lat="46.01332" lon="6.92105">
        <ele>1395</ele>
        <time>2019-08-07T17:49:25Z</time>
      </trkpt>
      <trkpt lat="46.01398" lon="6.92038">
        <ele>1386</ele>
        <time>2019-08-07T17:49:39Z</time>
      </trkpt>
      <trkpt lat="46.01475" lon="6.91945">
        <ele>1379</ele>
        <time>2019-08-07T17:49:57Z</time>
      </trkpt>
      <trkpt lat="46.015" lon="6.91924">
        <ele>1375</ele>
        <time>2019-08-07T17:50:02Z</time>
      </trkpt>
      <trkpt lat="46.01511" lon="6.91919">
        <ele>1375</ele>
        <time>2019-08-07T17:50:04Z</time>
      </trkpt>
      <trkpt lat="46.01595" lon="6.91896">
        <ele>1369</ele>
        <time>2019-08-07T17:50:19Z</time>
      </trkpt>
      <trkpt lat="46.01614" lon="6.91895">
        <ele>1369</ele>
        <time>2019-08-07T17:50:23Z</time>
      </trkpt>
      <trkpt lat="46.01676" lon="6.919">
        <ele>1367</ele>
        <time>2019-08-07T17:50:34Z</time>
      </trkpt>
      <trkpt lat="46.01689" lon="6.91905">
        <ele>1368</ele>
        <time>2019-08-07T17:50:36Z</time>
      </trkpt>
      <trkpt lat="46.01694" lon="6.9191">
        <ele>1368</ele>
        <time>2019-08-07T17:50:37Z</time>
      </trkpt>
      <trkpt lat="46.01711" lon="6.91954">
        <ele>1364</ele>
        <time>2019-08-07T17:50:43Z</time>
      </trkpt>
      <trkpt lat="46.01718" lon="6.91966">
        <ele>1363</ele>
        <time>2019-08-07T17:50:45Z</time>
      </trkpt>
      <trkpt lat="46.01726" lon="6.91971">
        <ele>1362</ele>
        <time>2019-08-07T17:50:47Z</time>
      </trkpt>
      <trkpt lat="46.01866" lon="6.91969">
        <ele>1351</ele>
        <time>2019-08-07T17:51:12Z</time>
      </trkpt>
      <trkpt lat="46.01921" lon="6.91966">
        <ele>1344</ele>
        <time>2019-08-07T17:51:22Z</time>
      </trkpt>
      <trkpt lat="46.01998" lon="6.91926">
        <ele>1339</ele>
        <time>2019-08-07T17:51:36Z</time>
      </trkpt>
      <trkpt lat="46.02005" lon="6.91918">
        <ele>1338</ele>
        <time>2019-08-07T17:51:38Z</time>
      </trkpt>
      <trkpt lat="46.02018" lon="6.91891">
        <ele>1338</ele>
        <time>2019-08-07T17:51:42Z</time>
      </trkpt>
      <trkpt lat="46.0204" lon="6.91832">
        <ele>1338</ele>
        <time>2019-08-07T17:51:50Z</time>
      </trkpt>
      <trkpt lat="46.02046" lon="6.91825">
        <ele>1339</ele>
        <time>2019-08-07T17:51:51Z</time>
      </trkpt>
      <trkpt lat="46.02058" lon="6.91821">
        <ele>1338</ele>
        <time>2019-08-07T17:51:54Z</time>
      </trkpt>
      <trkpt lat="46.02085" lon="6.91822">
        <ele>1337</ele>
        <time>2019-08-07T17:51:58Z</time>
      </trkpt>
      <trkpt lat="46.02095" lon="6.91827">
        <ele>1337</ele>
        <time>2019-08-07T17:52:00Z</time>
      </trkpt>
      <trkpt lat="46.02169" lon="6.9188">
        <ele>1330</ele>
        <time>2019-08-07T17:52:15Z</time>
      </trkpt>
      <trkpt lat="46.02212" lon="6.91897">
        <ele>1328</ele>
        <time>2019-08-07T17:52:23Z</time>
      </trkpt>
      <trkpt lat="46.02261" lon="6.91922">
        <ele>1325</ele>
        <time>2019-08-07T17:52:32Z</time>
      </trkpt>
      <trkpt lat="46.02333" lon="6.91972">
        <ele>1320</ele>
        <time>2019-08-07T17:52:46Z</time>
      </trkpt>
      <trkpt lat="46.02527" lon="6.92178">
        <ele>1309</ele>
        <time>2019-08-07T17:53:29Z</time>
      </trkpt>
      <trkpt lat="46.02552" lon="6.92223">
        <ele>1306</ele>
        <time>2019-08-07T17:53:36Z</time>
      </trkpt>
      <trkpt lat="46.02629" lon="6.92413">
        <ele>1303</ele>
        <time>2019-08-07T17:54:04Z</time>
      </trkpt>
      <trkpt lat="46.02647" lon="6.92446">
        <ele>1303</ele>
        <time>2019-08-07T17:54:09Z</time>
      </trkpt>
      <trkpt lat="46.02684" lon="6.92495">
        <ele>1303</ele>
        <time>2019-08-07T17:54:18Z</time>
      </trkpt>
      <trkpt lat="46.02697" lon="6.92516">
        <ele>1303</ele>
        <time>2019-08-07T17:54:21Z</time>
      </trkpt>
      <trkpt lat="46.02715" lon="6.92579">
        <ele>1300</ele>
        <time>2019-08-07T17:54:30Z</time>
      </trkpt>
      <trkpt lat="46.0272" lon="6.9259">
        <ele>1300</ele>
        <time>2019-08-07T17:54:31Z</time>
      </trkpt>
      <trkpt lat="46.02762" lon="6.92656">
        <ele>1300</ele>
        <time>2019-08-07T17:54:42Z</time>
      </trkpt>
      <trkpt lat="46.02773" lon="6.92666">
        <ele>1300</ele>
        <time>2019-08-07T17:54:45Z</time>
      </trkpt>
      <trkpt lat="46.02791" lon="6.9267">
        <ele>1299</ele>
        <time>2019-08-07T17:54:48Z</time>
      </trkpt>
      <trkpt lat="46.02849" lon="6.92673">
        <ele>1299</ele>
        <time>2019-08-07T17:54:58Z</time>
      </trkpt>
      <trkpt lat="46.02859" lon="6.92676">
        <ele>1298</ele>
        <time>2019-08-07T17:55:00Z</time>
      </trkpt>
      <trkpt lat="46.02891" lon="6.92713">
        <ele>1294</ele>
        <time>2019-08-07T17:55:07Z</time>
      </trkpt>
      <trkpt lat="46.02925" lon="6.92763">
        <ele>1288</ele>
        <time>2019-08-07T17:55:16Z</time>
      </trkpt>
      <trkpt lat="46.02964" lon="6.92813">
        <ele>1284</ele>
        <time>2019-08-07T17:55:25Z</time>
      </trkpt>
      <trkpt lat="46.02976" lon="6.92823">
        <ele>1283</ele>
        <time>2019-08-07T17:55:28Z</time>
      </trkpt>
      <trkpt lat="46.02988" lon="6.92826">
        <ele>1283</ele>
        <time>2019-08-07T17:55:30Z</time>
      </trkpt>
      <trkpt lat="46.03038" lon="6.92825">
        <ele>1287</ele>
        <time>2019-08-07T17:55:39Z</time>
      </trkpt>
      <trkpt lat="46.03055" lon="6.9283">
        <ele>1288</ele>
        <time>2019-08-07T17:55:42Z</time>
      </trkpt>
      <trkpt lat="46.0307" lon="6.92843">
        <ele>1287</ele>
        <time>2019-08-07T17:55:45Z</time>
      </trkpt>
      <trkpt lat="46.03117" lon="6.92917">
        <ele>1282</ele>
        <time>2019-08-07T17:55:57Z</time>
      </trkpt>
      <trkpt lat="46.03147" lon="6.92947">
        <ele>1281</ele>
        <time>2019-08-07T17:56:04Z</time>
      </trkpt>
      <trkpt lat="46.03175" lon="6.9297">
        <ele>1279</ele>
        <time>2019-08-07T17:56:10Z</time>
      </trkpt>
      <trkpt lat="46.03191" lon="6.92977">
        <ele>1280</ele>
        <time>2019-08-07T17:56:13Z</time>
      </trkpt>
      <trkpt lat="46.03214" lon="6.9298">
        <ele>1283</ele>
        <time>2019-08-07T17:56:17Z</time>
      </trkpt>
      <trkpt lat="46.03223" lon="6.92984">
        <ele>1283</ele>
        <time>2019-08-07T17:56:18Z</time>
      </trkpt>
      <trkpt lat="46.03286" lon="6.93023">
        <ele>1283</ele>
        <time>2019-08-07T17:56:31Z</time>
      </trkpt>
      <trkpt lat="46.033" lon="6.93035">
        <ele>1282</ele>
        <time>2019-08-07T17:56:33Z</time>
      </trkpt>
      <trkpt lat="46.03313" lon="6.93057">
        <ele>1279</ele>
        <time>2019-08-07T17:56:37Z</time>
      </trkpt>
      <trkpt lat="46.03341" lon="6.93147">
        <ele>1268</ele>
        <time>2019-08-07T17:56:49Z</time>
      </trkpt>
      <trkpt lat="46.03351" lon="6.93168">
        <ele>1266</ele>
        <time>2019-08-07T17:56:52Z</time>
      </trkpt>
      <trkpt lat="46.03362" lon="6.93183">
        <ele>1266</ele>
        <time>2019-08-07T17:56:55Z</time>
      </trkpt>
      <trkpt lat="46.03467" lon="6.933">
        <ele>1261</ele>
        <time>2019-08-07T17:57:19Z</time>
      </trkpt>
      <trkpt lat="46.03472" lon="6.93309">
        <ele>1260</ele>
        <time>2019-08-07T17:57:20Z</time>
      </trkpt>
      <trkpt lat="46.03483" lon="6.93337">
        <ele>1258</ele>
        <time>2019-08-07T17:57:24Z</time>
      </trkpt>
      <trkpt lat="46.0351" lon="6.9343">
        <ele>1255</ele>
        <time>2019-08-07T17:57:37Z</time>
      </trkpt>
      <trkpt lat="46.03527" lon="6.93475">
        <ele>1256</ele>
        <time>2019-08-07T17:57:43Z</time>
      </trkpt>
      <trkpt lat="46.0358" lon="6.9359">
        <ele>1258</ele>
        <time>2019-08-07T17:58:00Z</time>
      </trkpt>
      <trkpt lat="46.03593" lon="6.93607">
        <ele>1259</ele>
        <time>2019-08-07T17:58:03Z</time>
      </trkpt>
      <trkpt lat="46.03695" lon="6.9366">
        <ele>1254</ele>
        <time>2019-08-07T17:58:22Z</time>
      </trkpt>
      <trkpt lat="46.03725" lon="6.9367">
        <ele>1253</ele>
        <time>2019-08-07T17:58:28Z</time>
      </trkpt>
      <trkpt lat="46.03797" lon="6.93688">
        <ele>1251</ele>
        <time>2019-08-07T17:58:41Z</time>
      </trkpt>
      <trkpt lat="46.03817" lon="6.93691">
        <ele>1250</ele>
        <time>2019-08-07T17:58:44Z</time>
      </trkpt>
      <trkpt lat="46.03866" lon="6.93717">
        <ele>1248</ele>
        <time>2019-08-07T17:58:54Z</time>
      </trkpt>
      <trkpt lat="46.03917" lon="6.93736">
        <ele>1243</ele>
        <time>2019-08-07T17:59:03Z</time>
      </trkpt>
      <trkpt lat="46.03928" lon="6.9375">
        <ele>1242</ele>
        <time>2019-08-07T17:59:06Z</time>
      </trkpt>
      <trkpt lat="46.03939" lon="6.93778">
        <ele>1246</ele>
        <time>2019-08-07T17:59:10Z</time>
      </trkpt>
      <trkpt lat="46.03953" lon="6.93793">
        <ele>1247</ele>
        <time>2019-08-07T17:59:13Z</time>
      </trkpt>
      <trkpt lat="46.03988" lon="6.93805">
        <ele>1246</ele>
        <time>2019-08-07T17:59:19Z</time>
      </trkpt>
      <trkpt lat="46.04018" lon="6.93826">
        <ele>1245</ele>
        <time>2019-08-07T17:59:25Z</time>
      </trkpt>
      <trkpt lat="46.04056" lon="6.93839">
        <ele>1246</ele>
        <time>2019-08-07T17:59:32Z</time>
      </trkpt>
      <trkpt lat="46.04065" lon="6.93848">
        <ele>1247</ele>
        <time>2019-08-07T17:59:34Z</time>
      </trkpt>
      <trkpt lat="46.04095" lon="6.93889">
        <ele>1248</ele>
        <time>2019-08-07T17:59:41Z</time>
      </trkpt>
      <trkpt lat="46.04124" lon="6.9391">
        <ele>1245</ele>
        <time>2019-08-07T17:59:47Z</time>
      </trkpt>
      <trkpt lat="46.04169" lon="6.9393">
        <ele>1242</ele>
        <time>2019-08-07T17:59:56Z</time>
      </trkpt>
      <trkpt lat="46.04198" lon="6.93938">
        <ele>1240</ele>
        <time>2019-08-07T18:00:01Z</time>
      </trkpt>
      <trkpt lat="46.04219" lon="6.93938">
        <ele>1239</ele>
        <time>2019-08-07T18:00:04Z</time>
      </trkpt>
      <trkpt lat="46.04226" lon="6.93942">
        <ele>1238</ele>
        <time>2019-08-07T18:00:06Z</time>
      </trkpt>
      <trkpt lat="46.04236" lon="6.93953">
        <ele>1237</ele>
        <time>2019-08-07T18:00:08Z</time>
      </trkpt>
      <trkpt lat="46.04244" lon="6.93972">
        <ele>1236</ele>
        <time>2019-08-07T18:00:11Z</time>
      </trkpt>
      <trkpt lat="46.04251" lon="6.93982">
        <ele>1235</ele>
        <time>2019-08-07T18:00:13Z</time>
      </trkpt>
      <trkpt lat="46.0426" lon="6.93989">
        <ele>1234</ele>
        <time>2019-08-07T18:00:14Z</time>
      </trkpt>
      <trkpt lat="46.04277" lon="6.93992">
        <ele>1232</ele>
        <time>2019-08-07T18:00:17Z</time>
      </trkpt>
      <trkpt lat="46.04318" lon="6.94006">
        <ele>1229</ele>
        <time>2019-08-07T18:00:25Z</time>
      </trkpt>
      <trkpt lat="46.04443" lon="6.9406">
        <ele>1214</ele>
        <time>2019-08-07T18:00:48Z</time>
      </trkpt>
      <trkpt lat="46.04523" lon="6.94118">
        <ele>1198</ele>
        <time>2019-08-07T18:01:04Z</time>
      </trkpt>
      <trkpt lat="46.04607" lon="6.94149">
        <ele>1194</ele>
        <time>2019-08-07T18:01:20Z</time>
      </trkpt>
      <trkpt lat="46.04665" lon="6.94183">
        <ele>1190</ele>
        <time>2019-08-07T18:01:31Z</time>
      </trkpt>
      <trkpt lat="46.04725" lon="6.94222">
        <ele>1185</ele>
        <time>2019-08-07T18:01:42Z</time>
      </trkpt>
      <trkpt lat="46.04763" lon="6.94259">
        <ele>1183</ele>
        <time>2019-08-07T18:01:51Z</time>
      </trkpt>
      <trkpt lat="46.0478" lon="6.94272">
        <ele>1184</ele>
        <time>2019-08-07T18:01:54Z</time>
      </trkpt>
      <trkpt lat="46.04819" lon="6.94294">
        <ele>1181</ele>
        <time>2019-08-07T18:02:01Z</time>
      </trkpt>
      <trkpt lat="46.04837" lon="6.94312">
        <ele>1180</ele>
        <time>2019-08-07T18:02:05Z</time>
      </trkpt>
      <trkpt lat="46.04953" lon="6.9444">
        <ele>1164</ele>
        <time>2019-08-07T18:02:31Z</time>
      </trkpt>
      <trkpt lat="46.05013" lon="6.94532">
        <ele>1160</ele>
        <time>2019-08-07T18:02:47Z</time>
      </trkpt>
      <trkpt lat="46.05044" lon="6.94562">
        <ele>1156</ele>
        <time>2019-08-07T18:02:54Z</time>
      </trkpt>
      <trkpt lat="46.05069" lon="6.94581">
        <ele>1149</ele>
        <time>2019-08-07T18:02:59Z</time>
      </trkpt>
      <trkpt lat="46.05079" lon="6.94597">
        <ele>1145</ele>
        <time>2019-08-07T18:03:01Z</time>
      </trkpt>
      <trkpt lat="46.05091" lon="6.94646">
        <ele>1144</ele>
        <time>2019-08-07T18:03:08Z</time>
      </trkpt>
      <trkpt lat="46.05113" lon="6.94701">
        <ele>1143</ele>
        <time>2019-08-07T18:03:15Z</time>
      </trkpt>
      <trkpt lat="46.05115" lon="6.94712">
        <ele>1142</ele>
        <time>2019-08-07T18:03:17Z</time>
      </trkpt>
      <trkpt lat="46.05115" lon="6.94723">
        <ele>1141</ele>
        <time>2019-08-07T18:03:18Z</time>
      </trkpt>
      <trkpt lat="46.05105" lon="6.94766">
        <ele>1137</ele>
        <time>2019-08-07T18:03:24Z</time>
      </trkpt>
      <trkpt lat="46.05106" lon="6.9479">
        <ele>1136</ele>
        <time>2019-08-07T18:03:27Z</time>
      </trkpt>
      <trkpt lat="46.05109" lon="6.94803">
        <ele>1136</ele>
        <time>2019-08-07T18:03:29Z</time>
      </trkpt>
      <trkpt lat="46.05135" lon="6.9483">
        <ele>1131</ele>
        <time>2019-08-07T18:03:34Z</time>
      </trkpt>
      <trkpt lat="46.05153" lon="6.94863">
        <ele>1127</ele>
        <time>2019-08-07T18:03:39Z</time>
      </trkpt>
      <trkpt lat="46.05161" lon="6.94872">
        <ele>1125</ele>
        <time>2019-08-07T18:03:41Z</time>
      </trkpt>
      <trkpt lat="46.0521" lon="6.94912">
        <ele>1122</ele>
        <time>2019-08-07T18:03:51Z</time>
      </trkpt>
      <trkpt lat="46.05257" lon="6.9497">
        <ele>1120</ele>
        <time>2019-08-07T18:04:02Z</time>
      </trkpt>
      <trkpt lat="46.05308" lon="6.95045">
        <ele>1123</ele>
        <time>2019-08-07T18:04:15Z</time>
      </trkpt>
      <trkpt lat="46.05514" lon="6.95361">
        <ele>1129</ele>
        <time>2019-08-07T18:05:09Z</time>
      </trkpt>
      <trkpt lat="46.05541" lon="6.95408">
        <ele>1130</ele>
        <time>2019-08-07T18:05:16Z</time>
      </trkpt>
      <trkpt lat="46.05571" lon="6.9547">
        <ele>1133</ele>
        <time>2019-08-07T18:05:26Z</time>
      </trkpt>
      <trkpt lat="46.05619" lon="6.95582">
        <ele>1134</ele>
        <time>2019-08-07T18:05:42Z</time>
      </trkpt>
      <trkpt lat="46.05666" lon="6.95641">
        <ele>1124</ele>
        <time>2019-08-07T18:05:53Z</time>
      </trkpt>
      <trkpt lat="46.05725" lon="6.95693">
        <ele>1123</ele>
        <time>2019-08-07T18:06:05Z</time>
      </trkpt>
      <trkpt lat="46.05772" lon="6.95756">
        <ele>1120</ele>
        <time>2019-08-07T18:06:17Z</time>
      </trkpt>
      <trkpt lat="46.05845" lon="6.95885">
        <ele>1114</ele>
        <time>2019-08-07T18:06:37Z</time>
      </trkpt>
      <trkpt lat="46.05864" lon="6.95928">
        <ele>1112</ele>
        <time>2019-08-07T18:06:44Z</time>
      </trkpt>
      <trkpt lat="46.05936" lon="6.96126">
        <ele>1117</ele>
        <time>2019-08-07T18:07:11Z</time>
      </trkpt>
      <trkpt lat="46.05973" lon="6.9618">
        <ele>1112</ele>
        <time>2019-08-07T18:07:20Z</time>
      </trkpt>
      <trkpt lat="46.06036" lon="6.96262">
        <ele>1104</ele>
        <time>2019-08-07T18:07:36Z</time>
      </trkpt>
      <trkpt lat="46.0611" lon="6.96388">
        <ele>1108</ele>
        <time>2019-08-07T18:07:56Z</time>
      </trkpt>
      <trkpt lat="46.06162" lon="6.9645">
        <ele>1111</ele>
        <time>2019-08-07T18:08:08Z</time>
      </trkpt>
      <trkpt lat="46.06177" lon="6.96461">
        <ele>1114</ele>
        <time>2019-08-07T18:08:11Z</time>
      </trkpt>
      <trkpt lat="46.06241" lon="6.96519">
        <ele>1128</ele>
        <time>2019-08-07T18:08:24Z</time>
      </trkpt>
      <trkpt lat="46.06387" lon="6.9658">
        <ele>1130</ele>
        <time>2019-08-07T18:08:51Z</time>
      </trkpt>
      <trkpt lat="46.06463" lon="6.96633">
        <ele>1135</ele>
        <time>2019-08-07T18:09:06Z</time>
      </trkpt>
      <trkpt lat="46.06535" lon="6.967">
        <ele>1148</ele>
        <time>2019-08-07T18:09:22Z</time>
      </trkpt>
      <trkpt lat="46.06701" lon="6.96828">
        <ele>1159</ele>
        <time>2019-08-07T18:09:55Z</time>
      </trkpt>
      <trkpt lat="46.06738" lon="6.96862">
        <ele>1159</ele>
        <time>2019-08-07T18:10:03Z</time>
      </trkpt>
      <trkpt lat="46.06772" lon="6.96912">
        <ele>1165</ele>
        <time>2019-08-07T18:10:12Z</time>
      </trkpt>
      <trkpt lat="46.06923" lon="6.97261">
        <ele>1265</ele>
        <time>2019-08-07T18:11:02Z</time>
      </trkpt>
      <trkpt lat="46.06971" lon="6.97343">
        <ele>1228</ele>
        <time>2019-08-07T18:11:16Z</time>
      </trkpt>
      <trkpt lat="46.0701" lon="6.9738">
        <ele>1202</ele>
        <time>2019-08-07T18:11:24Z</time>
      </trkpt>
      <trkpt lat="46.07066" lon="6.97417">
        <ele>1185</ele>
        <time>2019-08-07T18:11:35Z</time>
      </trkpt>
      <trkpt lat="46.07087" lon="6.97435">
        <ele>1183</ele>
        <time>2019-08-07T18:11:39Z</time>
      </trkpt>
      <trkpt lat="46.07104" lon="6.97452">
        <ele>1183</ele>
        <time>2019-08-07T18:11:43Z</time>
      </trkpt>
      <trkpt lat="46.07118" lon="6.97471">
        <ele>1187</ele>
        <time>2019-08-07T18:11:46Z</time>
      </trkpt>
      <trkpt lat="46.07127" lon="6.9749">
        <ele>1192</ele>
        <time>2019-08-07T18:11:49Z</time>
      </trkpt>
      <trkpt lat="46.07143" lon="6.97544">
        <ele>1201</ele>
        <time>2019-08-07T18:11:57Z</time>
      </trkpt>
      <trkpt lat="46.07146" lon="6.97562">
        <ele>1204</ele>
        <time>2019-08-07T18:11:59Z</time>
      </trkpt>
      <trkpt lat="46.07145" lon="6.97601">
        <ele>1204</ele>
        <time>2019-08-07T18:12:04Z</time>
      </trkpt>
      <trkpt lat="46.07138" lon="6.97644">
        <ele>1198</ele>
        <time>2019-08-07T18:12:09Z</time>
      </trkpt>
      <trkpt lat="46.07123" lon="6.97688">
        <ele>1199</ele>
        <time>2019-08-07T18:12:15Z</time>
      </trkpt>
      <trkpt lat="46.07105" lon="6.97719">
        <ele>1204</ele>
        <time>2019-08-07T18:12:20Z</time>
      </trkpt>
      <trkpt lat="46.07081" lon="6.9775">
        <ele>1216</ele>
        <time>2019-08-07T18:12:26Z</time>
      </trkpt>
      <trkpt lat="46.07024" lon="6.97814">
        <ele>1236</ele>
        <time>2019-08-07T18:12:39Z</time>
      </trkpt>
      <trkpt lat="46.06993" lon="6.97869">
        <ele>1228</ele>
        <time>2019-08-07T18:12:47Z</time>
      </trkpt>
      <trkpt lat="46.0696" lon="6.97952">
        <ele>1217</ele>
        <time>2019-08-07T18:12:59Z</time>
      </trkpt>
      <trkpt lat="46.06921" lon="6.98028">
        <ele>1220</ele>
        <time>2019-08-07T18:13:11Z</time>
      </trkpt>
      <trkpt lat="46.06825" lon="6.98202">
        <ele>1230</ele>
        <time>2019-08-07T18:13:38Z</time>
      </trkpt>
      <trkpt lat="46.06787" lon="6.98291">
        <ele>1237</ele>
        <time>2019-08-07T18:13:51Z</time>
      </trkpt>
      <trkpt lat="46.06748" lon="6.984">
        <ele>1231</ele>
        <time>2019-08-07T18:14:06Z</time>
      </trkpt>
      <trkpt lat="46.06712" lon="6.98465">
        <ele>1248</ele>
        <time>2019-08-07T18:14:17Z</time>
      </trkpt>
      <trkpt lat="46.06672" lon="6.98516">
        <ele>1247</ele>
        <time>2019-08-07T18:14:26Z</time>
      </trkpt>
      <trkpt lat="46.0663" lon="6.98582">
        <ele>1263</ele>
        <time>2019-08-07T18:14:37Z</time>
      </trkpt>
      <trkpt lat="46.06525" lon="6.98805">
        <ele>1266</ele>
        <time>2019-08-07T18:15:11Z</time>
      </trkpt>
      <trkpt lat="46.06502" lon="6.98842">
        <ele>1257</ele>
        <time>2019-08-07T18:15:17Z</time>
      </trkpt>
      <trkpt lat="46.06453" lon="6.98893">
        <ele>1268</ele>
        <time>2019-08-07T18:15:27Z</time>
      </trkpt>
      <trkpt lat="46.06311" lon="6.98987">
        <ele>1273</ele>
        <time>2019-08-07T18:15:55Z</time>
      </trkpt>
      <trkpt lat="46.06271" lon="6.99018">
        <ele>1276</ele>
        <time>2019-08-07T18:16:03Z</time>
      </trkpt>
      <trkpt lat="46.06216" lon="6.99067">
        <ele>1281</ele>
        <time>2019-08-07T18:16:15Z</time>
      </trkpt>
      <trkpt lat="46.06194" lon="6.99089">
        <ele>1284</ele>
        <time>2019-08-07T18:16:20Z</time>
      </trkpt>
      <trkpt lat="46.06044" lon="6.99278">
        <ele>1280</ele>
        <time>2019-08-07T18:16:55Z</time>
      </trkpt>
      <trkpt lat="46.0602" lon="6.99299">
        <ele>1281</ele>
        <time>2019-08-07T18:17:00Z</time>
      </trkpt>
      <trkpt lat="46.05926" lon="6.99339">
        <ele>1282</ele>
        <time>2019-08-07T18:17:17Z</time>
      </trkpt>
      <trkpt lat="46.05674" lon="6.99599">
        <ele>1298</ele>
        <time>2019-08-07T18:18:13Z</time>
      </trkpt>
      <trkpt lat="46.05663" lon="6.99605">
        <ele>1299</ele>
        <time>2019-08-07T18:18:15Z</time>
      </trkpt>
      <trkpt lat="46.05641" lon="6.99608">
        <ele>1302</ele>
        <time>2019-08-07T18:18:19Z</time>
      </trkpt>
      <trkpt lat="46.05607" lon="6.99603">
        <ele>1306</ele>
        <time>2019-08-07T18:18:25Z</time>
      </trkpt>
      <trkpt lat="46.05587" lon="6.99604">
        <ele>1309</ele>
        <time>2019-08-07T18:18:28Z</time>
      </trkpt>
      <trkpt lat="46.05501" lon="6.9963">
        <ele>1317</ele>
        <time>2019-08-07T18:18:44Z</time>
      </trkpt>
      <trkpt lat="46.05472" lon="6.99633">
        <ele>1320</ele>
        <time>2019-08-07T18:18:49Z</time>
      </trkpt>
      <trkpt lat="46.05314" lon="6.99603">
        <ele>1329</ele>
        <time>2019-08-07T18:19:17Z</time>
      </trkpt>
      <trkpt lat="46.05277" lon="6.99602">
        <ele>1329</ele>
        <time>2019-08-07T18:19:24Z</time>
      </trkpt>
      <trkpt lat="46.0526" lon="6.99607">
        <ele>1330</ele>
        <time>2019-08-07T18:19:27Z</time>
      </trkpt>
      <trkpt lat="46.05231" lon="6.9962">
        <ele>1334</ele>
        <time>2019-08-07T18:19:32Z</time>
      </trkpt>
      <trkpt lat="46.05144" lon="6.9968">
        <ele>1354</ele>
        <time>2019-08-07T18:19:50Z</time>
      </trkpt>
      <trkpt lat="46.05114" lon="6.99689">
        <ele>1359</ele>
        <time>2019-08-07T18:19:55Z</time>
      </trkpt>
      <trkpt lat="46.05062" lon="6.99685">
        <ele>1361</ele>
        <time>2019-08-07T18:20:04Z</time>
      </trkpt>
      <trkpt lat="46.0503" lon="6.99677">
        <ele>1362</ele>
        <time>2019-08-07T18:20:10Z</time>
      </trkpt>
      <trkpt lat="46.05006" lon="6.99679">
        <ele>1366</ele>
        <time>2019-08-07T18:20:14Z</time>
      </trkpt>
      <trkpt lat="46.04973" lon="6.997">
        <ele>1378</ele>
        <time>2019-08-07T18:20:21Z</time>
      </trkpt>
      <trkpt lat="46.04952" lon="6.99709">
        <ele>1383</ele>
        <time>2019-08-07T18:20:25Z</time>
      </trkpt>
      <trkpt lat="46.04926" lon="6.99712">
        <ele>1386</ele>
        <time>2019-08-07T18:20:29Z</time>
      </trkpt>
      <trkpt lat="46.04862" lon="6.99708">
        <ele>1383</ele>
        <time>2019-08-07T18:20:41Z</time>
      </trkpt>
      <trkpt lat="46.04771" lon="6.99724">
        <ele>1394</ele>
        <time>2019-08-07T18:20:57Z</time>
      </trkpt>
      <trkpt lat="46.0471" lon="6.9972">
        <ele>1393</ele>
        <time>2019-08-07T18:21:08Z</time>
      </trkpt>
      <trkpt lat="46.0467" lon="6.99725">
        <ele>1396</ele>
        <time>2019-08-07T18:21:15Z</time>
      </trkpt>
      <trkpt lat="46.04558" lon="6.99752">
        <ele>1402</ele>
        <time>2019-08-07T18:21:35Z</time>
      </trkpt>
      <trkpt lat="46.04538" lon="6.99754">
        <ele>1403</ele>
        <time>2019-08-07T18:21:39Z</time>
      </trkpt>
      <trkpt lat="46.04514" lon="6.9975">
        <ele>1401</ele>
        <time>2019-08-07T18:21:43Z</time>
      </trkpt>
      <trkpt lat="46.04508" lon="6.99751">
        <ele>1401</ele>
        <time>2019-08-07T18:21:44Z</time>
      </trkpt>
      <trkpt lat="46.04501" lon="6.99759">
        <ele>1405</ele>
        <time>2019-08-07T18:21:46Z</time>
      </trkpt>
      <trkpt lat="46.045" lon="6.99768">
        <ele>1409</ele>
        <time>2019-08-07T18:21:47Z</time>
      </trkpt>
      <trkpt lat="46.04504" lon="6.99776">
        <ele>1413</ele>
        <time>2019-08-07T18:21:48Z</time>
      </trkpt>
      <trkpt lat="46.04511" lon="6.99781">
        <ele>1415</ele>
        <time>2019-08-07T18:21:50Z</time>
      </trkpt>
      <trkpt lat="46.04568" lon="6.99771">
        <ele>1411</ele>
        <time>2019-08-07T18:22:00Z</time>
      </trkpt>
      <trkpt lat="46.04627" lon="6.99773">
        <ele>1417</ele>
        <time>2019-08-07T18:22:10Z</time>
      </trkpt>
      <trkpt lat="46.0471" lon="6.99789">
        <ele>1431</ele>
        <time>2019-08-07T18:22:25Z</time>
      </trkpt>
      <trkpt lat="46.04827" lon="6.99829">
        <ele>1448</ele>
        <time>2019-08-07T18:22:47Z</time>
      </trkpt>
      <trkpt lat="46.0491" lon="6.99864">
        <ele>1460</ele>
        <time>2019-08-07T18:23:02Z</time>
      </trkpt>
      <trkpt lat="46.04961" lon="6.99852">
        <ele>1449</ele>
        <time>2019-08-07T18:23:11Z</time>
      </trkpt>
      <trkpt lat="46.0498" lon="6.99863">
        <ele>1453</ele>
        <time>2019-08-07T18:23:15Z</time>
      </trkpt>
      <trkpt lat="46.04996" lon="6.99882">
        <ele>1461</ele>
        <time>2019-08-07T18:23:18Z</time>
      </trkpt>
      <trkpt lat="46.05011" lon="6.99895">
        <ele>1467</ele>
        <time>2019-08-07T18:23:22Z</time>
      </trkpt>
      <trkpt lat="46.05025" lon="6.99898">
        <ele>1468</ele>
        <time>2019-08-07T18:23:24Z</time>
      </trkpt>
      <trkpt lat="46.05072" lon="6.99888">
        <ele>1463</ele>
        <time>2019-08-07T18:23:33Z</time>
      </trkpt>
      <trkpt lat="46.0509" lon="6.99892">
        <ele>1463</ele>
        <time>2019-08-07T18:23:36Z</time>
      </trkpt>
      <trkpt lat="46.05177" lon="6.99955">
        <ele>1485</ele>
        <time>2019-08-07T18:23:53Z</time>
      </trkpt>
      <trkpt lat="46.05202" lon="6.99965">
        <ele>1488</ele>
        <time>2019-08-07T18:23:58Z</time>
      </trkpt>
      <trkpt lat="46.05225" lon="6.9997">
        <ele>1488</ele>
        <time>2019-08-07T18:24:02Z</time>
      </trkpt>
      <trkpt lat="46.05329" lon="6.9997">
        <ele>1486</ele>
        <time>2019-08-07T18:24:20Z</time>
      </trkpt>
      <trkpt lat="46.05364" lon="6.99983">
        <ele>1488</ele>
        <time>2019-08-07T18:24:27Z</time>
      </trkpt>
      <trkpt lat="46.05397" lon="6.99991">
        <ele>1488</ele>
        <time>2019-08-07T18:24:33Z</time>
      </trkpt>
      <trkpt lat="46.05451" lon="6.99999">
        <ele>1492</ele>
        <time>2019-08-07T18:24:42Z</time>
      </trkpt>
      <trkpt lat="46.05472" lon="6.99999">
        <ele>1493</ele>
        <time>2019-08-07T18:24:46Z</time>
      </trkpt>
      <trkpt lat="46.05539" lon="6.99989">
        <ele>1494</ele>
        <time>2019-08-07T18:24:58Z</time>
      </trkpt>
      <trkpt lat="46.05641" lon="6.99989">
        <ele>1505</ele>
        <time>2019-08-07T18:25:16Z</time>
      </trkpt>
      <trkpt lat="46.05774" lon="6.99984">
        <ele>1517</ele>
        <time>2019-08-07T18:25:40Z</time>
      </trkpt>
      <trkpt lat="46.05789" lon="6.99975">
        <ele>1517</ele>
        <time>2019-08-07T18:25:43Z</time>
      </trkpt>
      <trkpt lat="46.05812" lon="6.99952">
        <ele>1513</ele>
        <time>2019-08-07T18:25:48Z</time>
      </trkpt>
      <trkpt lat="46.05818" lon="6.99951">
        <ele>1514</ele>
        <time>2019-08-07T18:25:49Z</time>
      </trkpt>
      <trkpt lat="46.05825" lon="6.99958">
        <ele>1518</ele>
        <time>2019-08-07T18:25:50Z</time>
      </trkpt>
      <trkpt lat="46.05827" lon="6.9997">
        <ele>1523</ele>
        <time>2019-08-07T18:25:52Z</time>
      </trkpt>
      <trkpt lat="46.05774" lon="7.0011">
        <ele>1533</ele>
        <time>2019-08-07T18:26:12Z</time>
      </trkpt>
      <trkpt lat="46.05772" lon="7.00135">
        <ele>1534</ele>
        <time>2019-08-07T18:26:15Z</time>
      </trkpt>
      <trkpt lat="46.05776" lon="7.0015">
        <ele>1535</ele>
        <time>2019-08-07T18:26:17Z</time>
      </trkpt>
      <trkpt lat="46.05786" lon="7.00164">
        <ele>1535</ele>
        <time>2019-08-07T18:26:19Z</time>
      </trkpt>
      <trkpt lat="46.05846" lon="7.00209">
        <ele>1529</ele>
        <time>2019-08-07T18:26:31Z</time>
      </trkpt>
      <trkpt lat="46.05878" lon="7.00242">
        <ele>1537</ele>
        <time>2019-08-07T18:26:38Z</time>
      </trkpt>
      <trkpt lat="46.05904" lon="7.00281">
        <ele>1534</ele>
        <time>2019-08-07T18:26:45Z</time>
      </trkpt>
      <trkpt lat="46.05957" lon="7.00378">
        <ele>1525</ele>
        <time>2019-08-07T18:27:00Z</time>
      </trkpt>
      <trkpt lat="46.05981" lon="7.00426">
        <ele>1521</ele>
        <time>2019-08-07T18:27:08Z</time>
      </trkpt>
      <trkpt lat="46.06013" lon="7.00508">
        <ele>1509</ele>
        <time>2019-08-07T18:27:19Z</time>
      </trkpt>
      <trkpt lat="46.06048" lon="7.00618">
        <ele>1504</ele>
        <time>2019-08-07T18:27:34Z</time>
      </trkpt>
      <trkpt lat="46.06065" lon="7.00686">
        <ele>1500</ele>
        <time>2019-08-07T18:27:43Z</time>
      </trkpt>
      <trkpt lat="46.0608" lon="7.00734">
        <ele>1496</ele>
        <time>2019-08-07T18:27:49Z</time>
      </trkpt>
      <trkpt lat="46.06111" lon="7.00815">
        <ele>1490</ele>
        <time>2019-08-07T18:28:01Z</time>
      </trkpt>
      <trkpt lat="46.06159" lon="7.00919">
        <ele>1483</ele>
        <time>2019-08-07T18:28:16Z</time>
      </trkpt>
      <trkpt lat="46.06211" lon="7.01017">
        <ele>1479</ele>
        <time>2019-08-07T18:28:32Z</time>
      </trkpt>
      <trkpt lat="46.06267" lon="7.01107">
        <ele>1469</ele>
        <time>2019-08-07T18:28:46Z</time>
      </trkpt>
      <trkpt lat="46.06373" lon="7.01244">
        <ele>1458</ele>
        <time>2019-08-07T18:29:12Z</time>
      </trkpt>
      <trkpt lat="46.06449" lon="7.01358">
        <ele>1450</ele>
        <time>2019-08-07T18:29:31Z</time>
      </trkpt>
      <trkpt lat="46.06593" lon="7.01539">
        <ele>1429</ele>
        <time>2019-08-07T18:30:05Z</time>
      </trkpt>
      <trkpt lat="46.06648" lon="7.01596">
        <ele>1421</ele>
        <time>2019-08-07T18:30:17Z</time>
      </trkpt>
      <trkpt lat="46.06726" lon="7.01667">
        <ele>1413</ele>
        <time>2019-08-07T18:30:34Z</time>
      </trkpt>
      <trkpt lat="46.06768" lon="7.01689">
        <ele>1413</ele>
        <time>2019-08-07T18:30:42Z</time>
      </trkpt>
      <trkpt lat="46.06833" lon="7.01713">
        <ele>1409</ele>
        <time>2019-08-07T18:30:54Z</time>
      </trkpt>
      <trkpt lat="46.06859" lon="7.01728">
        <ele>1410</ele>
        <time>2019-08-07T18:30:59Z</time>
      </trkpt>
      <trkpt lat="46.06897" lon="7.01763">
        <ele>1407</ele>
        <time>2019-08-07T18:31:07Z</time>
      </trkpt>
      <trkpt lat="46.06938" lon="7.01811">
        <ele>1395</ele>
        <time>2019-08-07T18:31:16Z</time>
      </trkpt>
      <trkpt lat="46.06956" lon="7.01826">
        <ele>1391</ele>
        <time>2019-08-07T18:31:20Z</time>
      </trkpt>
      <trkpt lat="46.07028" lon="7.01869">
        <ele>1391</ele>
        <time>2019-08-07T18:31:34Z</time>
      </trkpt>
      <trkpt lat="46.07052" lon="7.01886">
        <ele>1392</ele>
        <time>2019-08-07T18:31:38Z</time>
      </trkpt>
      <trkpt lat="46.0707" lon="7.01907">
        <ele>1388</ele>
        <time>2019-08-07T18:31:43Z</time>
      </trkpt>
      <trkpt lat="46.07107" lon="7.01968">
        <ele>1378</ele>
        <time>2019-08-07T18:31:53Z</time>
      </trkpt>
      <trkpt lat="46.07122" lon="7.01984">
        <ele>1377</ele>
        <time>2019-08-07T18:31:56Z</time>
      </trkpt>
      <trkpt lat="46.07234" lon="7.02081">
        <ele>1362</ele>
        <time>2019-08-07T18:32:19Z</time>
      </trkpt>
      <trkpt lat="46.07272" lon="7.02097">
        <ele>1360</ele>
        <time>2019-08-07T18:32:26Z</time>
      </trkpt>
      <trkpt lat="46.07312" lon="7.02109">
        <ele>1358</ele>
        <time>2019-08-07T18:32:33Z</time>
      </trkpt>
      <trkpt lat="46.07361" lon="7.02107">
        <ele>1361</ele>
        <time>2019-08-07T18:32:42Z</time>
      </trkpt>
      <trkpt lat="46.07378" lon="7.02109">
        <ele>1360</ele>
        <time>2019-08-07T18:32:45Z</time>
      </trkpt>
      <trkpt lat="46.07409" lon="7.02126">
        <ele>1348</ele>
        <time>2019-08-07T18:32:51Z</time>
      </trkpt>
      <trkpt lat="46.07432" lon="7.0213">
        <ele>1342</ele>
        <time>2019-08-07T18:32:55Z</time>
      </trkpt>
      <trkpt lat="46.07447" lon="7.02125">
        <ele>1342</ele>
        <time>2019-08-07T18:32:58Z</time>
      </trkpt>
      <trkpt lat="46.07467" lon="7.02113">
        <ele>1345</ele>
        <time>2019-08-07T18:33:02Z</time>
      </trkpt>
      <trkpt lat="46.07507" lon="7.02082">
        <ele>1350</ele>
        <time>2019-08-07T18:33:10Z</time>
      </trkpt>
      <trkpt lat="46.07538" lon="7.0204">
        <ele>1358</ele>
        <time>2019-08-07T18:33:17Z</time>
      </trkpt>
      <trkpt lat="46.07546" lon="7.02036">
        <ele>1357</ele>
        <time>2019-08-07T18:33:19Z</time>
      </trkpt>
      <trkpt lat="46.07557" lon="7.0204">
        <ele>1351</ele>
        <time>2019-08-07T18:33:21Z</time>
      </trkpt>
      <trkpt lat="46.07561" lon="7.02057">
        <ele>1342</ele>
        <time>2019-08-07T18:33:23Z</time>
      </trkpt>
      <trkpt lat="46.07557" lon="7.0207">
        <ele>1338</ele>
        <time>2019-08-07T18:33:25Z</time>
      </trkpt>
      <trkpt lat="46.07549" lon="7.02078">
        <ele>1337</ele>
        <time>2019-08-07T18:33:27Z</time>
      </trkpt>
      <trkpt lat="46.07506" lon="7.02112">
        <ele>1335</ele>
        <time>2019-08-07T18:33:35Z</time>
      </trkpt>
      <trkpt lat="46.07472" lon="7.02148">
        <ele>1324</ele>
        <time>2019-08-07T18:33:43Z</time>
      </trkpt>
      <trkpt lat="46.07454" lon="7.02157">
        <ele>1321</ele>
        <time>2019-08-07T18:33:46Z</time>
      </trkpt>
      <trkpt lat="46.07398" lon="7.02161">
        <ele>1325</ele>
        <time>2019-08-07T18:33:56Z</time>
      </trkpt>
      <trkpt lat="46.0732" lon="7.02181">
        <ele>1312</ele>
        <time>2019-08-07T18:34:10Z</time>
      </trkpt>
      <trkpt lat="46.073" lon="7.02182">
        <ele>1311</ele>
        <time>2019-08-07T18:34:14Z</time>
      </trkpt>
      <trkpt lat="46.07254" lon="7.02173">
        <ele>1313</ele>
        <time>2019-08-07T18:34:22Z</time>
      </trkpt>
      <trkpt lat="46.07214" lon="7.02176">
        <ele>1303</ele>
        <time>2019-08-07T18:34:29Z</time>
      </trkpt>
      <trkpt lat="46.07197" lon="7.02175">
        <ele>1300</ele>
        <time>2019-08-07T18:34:32Z</time>
      </trkpt>
      <trkpt lat="46.07079" lon="7.02124">
        <ele>1297</ele>
        <time>2019-08-07T18:34:54Z</time>
      </trkpt>
      <trkpt lat="46.06977" lon="7.02073">
        <ele>1288</ele>
        <time>2019-08-07T18:35:13Z</time>
      </trkpt>
      <trkpt lat="46.06875" lon="7.02026">
        <ele>1284</ele>
        <time>2019-08-07T18:35:33Z</time>
      </trkpt>
      <trkpt lat="46.06837" lon="7.02016">
        <ele>1278</ele>
        <time>2019-08-07T18:35:39Z</time>
      </trkpt>
      <trkpt lat="46.06795" lon="7.02015">
        <ele>1272</ele>
        <time>2019-08-07T18:35:47Z</time>
      </trkpt>
      <trkpt lat="46.06699" lon="7.02032">
        <ele>1250</ele>
        <time>2019-08-07T18:36:04Z</time>
      </trkpt>
      <trkpt lat="46.0668" lon="7.0203">
        <ele>1248</ele>
        <time>2019-08-07T18:36:07Z</time>
      </trkpt>
      <trkpt lat="46.06666" lon="7.02024">
        <ele>1248</ele>
        <time>2019-08-07T18:36:10Z</time>
      </trkpt>
    </trkseg>
  </trk>
</gpx>